Observation data for Canadian on 09/12/2017      Previous  Date  Next       Current Mesonet Observations  Soil Data  Daily Summary Page  Observations in Plain Language
KCA1 120500Z 08005KT 17/11 A3009 RMK A01 T01670113  RH  070%=      5-min Rain = 0
KCA1 120501Z 08004KT 17/11 A3009 RMK A01 T01670113  RH  071%=      5-min Rain = 0
KCA1 120502Z 09004KT 17/11 A3009 RMK A01 T01670113  RH  071%=      5-min Rain = 0
KCA1 120503Z 09005KT 17/11 A3009 RMK A01 T01670113  RH  071%=      5-min Rain = 0
KCA1 120504Z 09005KT 17/11 A3009 RMK A01 T01670113  RH  071%=      5-min Rain = 0
KCA1 120505Z 08005KT 17/11 A3009 RMK A01 T01660113  RH  071%=      5-min Rain = 0
KCA1 120506Z 08005KT 17/11 A3008 RMK A01 T01660113  RH  071%=      5-min Rain = 0
KCA1 120507Z 08005KT 17/11 A3008 RMK A01 T01660113  RH  071%=      5-min Rain = 0
KCA1 120508Z 08006KT 17/11 A3009 RMK A01 T01650113  RH  071%=      5-min Rain = 0
KCA1 120509Z 07010KT 16/11 A3009 RMK A01 T01640112  RH  071%=      5-min Rain = 0
KCA1 120510Z 07010KT 16/11 A3009 RMK A01 T01630112  RH  072%=      5-min Rain = 0
KCA1 120511Z 07008KT 16/11 A3009 RMK A01 T01640112  RH  072%=      5-min Rain = 0
KCA1 120512Z 07007KT 17/11 A3009 RMK A01 T01650113  RH  071%=      5-min Rain = 0
KCA1 120513Z 06008KT 17/11 A3009 RMK A01 T01670114  RH  071%=      5-min Rain = 0
KCA1 120514Z 06008KT 17/11 A3009 RMK A01 T01680114  RH  070%=      5-min Rain = 0
KCA1 120515Z 07007KT 17/11 A3008 RMK A01 T01690114  RH  070%=      5-min Rain = 0
KCA1 120516Z 08007KT 17/11 A3008 RMK A01 T01690114  RH  070%=      5-min Rain = 0
KCA1 120517Z 09006KT 17/11 A3008 RMK A01 T01690114  RH  070%=      5-min Rain = 0
KCA1 120518Z 07006KT 17/11 A3008 RMK A01 T01680113  RH  070%=      5-min Rain = 0
KCA1 120519Z 07007KT 17/11 A3008 RMK A01 T01690113  RH  070%=      5-min Rain = 0
KCA1 120520Z 08008KT 17/11 A3008 RMK A01 T01690114  RH  070%=      5-min Rain = 0
KCA1 120521Z 09007KT 17/11 A3008 RMK A01 T01690114  RH  070%=      5-min Rain = 0
KCA1 120522Z 09006KT 17/11 A3008 RMK A01 T01690114  RH  070%=      5-min Rain = 0
KCA1 120523Z 08006KT 17/11 A3008 RMK A01 T01690113  RH  070%=      5-min Rain = 0
KCA1 120524Z 08008KT 17/11 A3008 RMK A01 T01680113  RH  070%=      5-min Rain = 0
KCA1 120525Z 08008KT 17/11 A3008 RMK A01 T01680113  RH  070%=      5-min Rain = 0
KCA1 120526Z 09007KT 17/11 A3008 RMK A01 T01680113  RH  070%=      5-min Rain = 0
KCA1 120527Z 09006KT 17/11 A3008 RMK A01 T01690114  RH  070%=      5-min Rain = 0
KCA1 120528Z 08007KT 17/11 A3008 RMK A01 T01710114  RH  069%=      5-min Rain = 0
KCA1 120529Z 08007KT 17/11 A3008 RMK A01 T01720113  RH  069%=      5-min Rain = 0
KCA1 120530Z 08007KT 17/11 A3008 RMK A01 T01720113  RH  069%=      5-min Rain = 0
KCA1 120531Z 08007KT 17/11 A3008 RMK A01 T01710113  RH  069%=      5-min Rain = 0
KCA1 120532Z 09006KT 17/11 A3008 RMK A01 T01700113  RH  069%=      5-min Rain = 0
KCA1 120533Z 09006KT 17/11 A3008 RMK A01 T01690113  RH  069%=      5-min Rain = 0
KCA1 120534Z 09006KT 17/11 A3008 RMK A01 T01690113  RH  070%=      5-min Rain = 0
KCA1 120535Z 09006KT 17/11 A3008 RMK A01 T01690113  RH  069%=      5-min Rain = 0
KCA1 120536Z 09006KT 17/11 A3008 RMK A01 T01690113  RH  069%=      5-min Rain = 0
KCA1 120537Z 10006KT 17/11 A3008 RMK A01 T01700113  RH  069%=      5-min Rain = 0
KCA1 120538Z 12005KT 17/11 A3008 RMK A01 T01710113  RH  069%=      5-min Rain = 0
KCA1 120539Z 11006KT 17/11 A3008 RMK A01 T01730113  RH  068%=      5-min Rain = 0
KCA1 120540Z 10007KT 17/11 A3008 RMK A01 T01740113  RH  068%=      5-min Rain = 0
KCA1 120541Z 10007KT 17/11 A3008 RMK A01 T01740113  RH  067%=      5-min Rain = 0
KCA1 120542Z 10007KT 17/11 A3008 RMK A01 T01740113  RH  068%=      5-min Rain = 0
KCA1 120543Z 10007KT 17/11 A3008 RMK A01 T01740114  RH  068%=      5-min Rain = 0
KCA1 120544Z 10007KT 17/11 A3008 RMK A01 T01740114  RH  068%=      5-min Rain = 0
KCA1 120545Z 10007KT 17/11 A3008 RMK A01 T01740114  RH  068%=      5-min Rain = 0
KCA1 120546Z 10006KT 17/11 A3008 RMK A01 T01740114  RH  068%=      5-min Rain = 0
KCA1 120547Z 09006KT 17/11 A3008 RMK A01 T01730113  RH  068%=      5-min Rain = 0
KCA1 120548Z 09006KT 17/11 A3008 RMK A01 T01720114  RH  068%=      5-min Rain = 0
KCA1 120549Z 09006KT 17/11 A3008 RMK A01 T01720113  RH  068%=      5-min Rain = 0
KCA1 120550Z 09006KT 17/11 A3008 RMK A01 T01710113  RH  069%=      5-min Rain = 0
KCA1 120551Z 09007KT 17/11 A3008 RMK A01 T01700113  RH  069%=      5-min Rain = 0
KCA1 120552Z 09007KT 17/11 A3008 RMK A01 T01700113  RH  069%=      5-min Rain = 0
KCA1 120553Z 10007KT 17/11 A3008 RMK A01 T01700113  RH  069%=      5-min Rain = 0
KCA1 120554Z 10007KT 17/11 A3008 RMK A01 T01690113  RH  069%=      5-min Rain = 0
KCA1 120555Z 09006KT 17/11 A3008 RMK A01 T01690113  RH  069%=      5-min Rain = 0
KCA1 120556Z 09007KT 17/11 A3008 RMK A01 T01700113  RH  069%=      5-min Rain = 0
KCA1 120557Z 09007KT 17/11 A3008 RMK A01 T01700113  RH  069%=      5-min Rain = 0
KCA1 120558Z 09007KT 17/11 A3008 RMK A01 T01690113  RH  069%=      5-min Rain = 0
KCA1 120559Z 09007KT 17/11 A3008 RMK A01 T01690113  RH  070%=      5-min Rain = 0
KCA1 120600Z 09007KT 17/11 A3008 RMK A01 T01680113  RH  070%=      5-min Rain = 0
KCA1 120601Z 09006KT 17/11 A3007 RMK A01 T01680113  RH  070%=      5-min Rain = 0
KCA1 120602Z 09006KT 17/11 A3007 RMK A01 T01680113  RH  070%=      5-min Rain = 0
KCA1 120603Z 09006KT 17/11 A3007 RMK A01 T01680113  RH  070%=      5-min Rain = 0
KCA1 120604Z 09006KT 17/11 A3007 RMK A01 T01670113  RH  070%=      5-min Rain = 0
KCA1 120605Z 09007KT 17/11 A3007 RMK A01 T01670113  RH  070%=      5-min Rain = 0
KCA1 120606Z 09006KT 17/11 A3007 RMK A01 T01670112  RH  070%=      5-min Rain = 0
KCA1 120607Z 09006KT 17/11 A3007 RMK A01 T01670112  RH  070%=      5-min Rain = 0
KCA1 120608Z 09006KT 17/11 A3007 RMK A01 T01660112  RH  070%=      5-min Rain = 0
KCA1 120609Z 09007KT 16/11 A3007 RMK A01 T01640111  RH  071%=      5-min Rain = 0
KCA1 120610Z 09006KT 16/11 A3007 RMK A01 T01630111  RH  071%=      5-min Rain = 0
KCA1 120611Z 09007KT 16/11 A3007 RMK A01 T01630111  RH  071%=      5-min Rain = 0
KCA1 120612Z 08007KT 16/11 A3007 RMK A01 T01620111  RH  072%=      5-min Rain = 0
KCA1 120613Z 08007KT 16/11 A3007 RMK A01 T01620111  RH  072%=      5-min Rain = 0
KCA1 120614Z 08007KT 16/11 A3007 RMK A01 T01620111  RH  072%=      5-min Rain = 0
KCA1 120615Z 09007KT 16/11 A3007 RMK A01 T01620111  RH  072%=      5-min Rain = 0
KCA1 120616Z 09007KT 16/11 A3007 RMK A01 T01630111  RH  071%=      5-min Rain = 0
KCA1 120617Z 09007KT 16/11 A3007 RMK A01 T01630111  RH  071%=      5-min Rain = 0
KCA1 120618Z 09007KT 16/11 A3007 RMK A01 T01630111  RH  071%=      5-min Rain = 0
KCA1 120619Z 09007KT 16/11 A3007 RMK A01 T01630111  RH  071%=      5-min Rain = 0
KCA1 120620Z 09007KT 16/11 A3007 RMK A01 T01630111  RH  071%=      5-min Rain = 0
KCA1 120621Z 09006KT 16/11 A3007 RMK A01 T01630111  RH  071%=      5-min Rain = 0
KCA1 120622Z 09006KT 16/11 A3007 RMK A01 T01630111  RH  071%=      5-min Rain = 0
KCA1 120623Z 09006KT 16/11 A3007 RMK A01 T01630111  RH  071%=      5-min Rain = 0
KCA1 120624Z 09006KT 16/11 A3007 RMK A01 T01630111  RH  071%=      5-min Rain = 0
KCA1 120625Z 08006KT 16/11 A3007 RMK A01 T01630111  RH  071%=      5-min Rain = 0
KCA1 120626Z 09007KT 16/11 A3007 RMK A01 T01630111  RH  071%=      5-min Rain = 0
KCA1 120627Z 09007KT 16/11 A3007 RMK A01 T01630111  RH  071%=      5-min Rain = 0
KCA1 120628Z 09007KT 16/11 A3007 RMK A01 T01630111  RH  072%=      5-min Rain = 0
KCA1 120629Z 09007KT 16/11 A3007 RMK A01 T01620111  RH  071%=      5-min Rain = 0
KCA1 120630Z 09007KT 16/11 A3007 RMK A01 T01630111  RH  071%=      5-min Rain = 0
KCA1 120631Z 09007KT 16/11 A3007 RMK A01 T01630111  RH  071%=      5-min Rain = 0
KCA1 120632Z 09006KT 16/11 A3007 RMK A01 T01640111  RH  071%=      5-min Rain = 0
KCA1 120633Z 08006KT 17/11 A3007 RMK A01 T01650112  RH  071%=      5-min Rain = 0
KCA1 120634Z 08006KT 17/11 A3007 RMK A01 T01650111  RH  071%=      5-min Rain = 0
KCA1 120635Z 09006KT 16/11 A3007 RMK A01 T01640111  RH  071%=      5-min Rain = 0
KCA1 120636Z 09007KT 16/11 A3007 RMK A01 T01640111  RH  071%=      5-min Rain = 0
KCA1 120637Z 09007KT 16/11 A3007 RMK A01 T01640111  RH  071%=      5-min Rain = 0
KCA1 120638Z 08007KT 16/11 A3007 RMK A01 T01630111  RH  071%=      5-min Rain = 0
KCA1 120639Z 08007KT 16/11 A3007 RMK A01 T01630111  RH  072%=      5-min Rain = 0
KCA1 120640Z 08007KT 16/11 A3007 RMK A01 T01620111  RH  072%=      5-min Rain = 0
KCA1 120641Z 08008KT 16/11 A3007 RMK A01 T01620111  RH  072%=      5-min Rain = 0
KCA1 120642Z 08008KT 16/11 A3007 RMK A01 T01610111  RH  072%=      5-min Rain = 0
KCA1 120643Z 08008KT 16/11 A3007 RMK A01 T01600111  RH  072%=      5-min Rain = 0
KCA1 120644Z 08008KT 16/11 A3007 RMK A01 T01600111  RH  073%=      5-min Rain = 0
KCA1 120645Z 08007KT 16/11 A3007 RMK A01 T01600112  RH  073%=      5-min Rain = 0
KCA1 120646Z 08007KT 16/11 A3007 RMK A01 T01610112  RH  073%=      5-min Rain = 0
KCA1 120647Z 08007KT 16/11 A3007 RMK A01 T01610112  RH  073%=      5-min Rain = 0
KCA1 120648Z 08007KT 16/11 A3007 RMK A01 T01610112  RH  073%=      5-min Rain = 0
KCA1 120649Z 08006KT 16/11 A3007 RMK A01 T01600112  RH  073%=      5-min Rain = 0
KCA1 120650Z 08006KT 16/11 A3007 RMK A01 T01610112  RH  073%=      5-min Rain = 0
KCA1 120651Z 08006KT 16/11 A3007 RMK A01 T01610112  RH  073%=      5-min Rain = 0
KCA1 120652Z 08006KT 16/11 A3007 RMK A01 T01600112  RH  073%=      5-min Rain = 0
KCA1 120653Z 08006KT 16/11 A3007 RMK A01 T01600112  RH  073%=      5-min Rain = 0
KCA1 120654Z 08006KT 16/11 A3007 RMK A01 T01590112  RH  073%=      5-min Rain = 0
KCA1 120655Z 08006KT 16/11 A3007 RMK A01 T01590112  RH  074%=      5-min Rain = 0
KCA1 120656Z 08006KT 16/11 A3007 RMK A01 T01580112  RH  074%=      5-min Rain = 0
KCA1 120657Z 08006KT 16/11 A3007 RMK A01 T01570111  RH  074%=      5-min Rain = 0
KCA1 120658Z 08005KT 16/11 A3007 RMK A01 T01570111  RH  074%=      5-min Rain = 0
KCA1 120659Z 08005KT 16/11 A3007 RMK A01 T01560111  RH  074%=      5-min Rain = 0
KCA1 120700Z 08005KT 16/11 A3007 RMK A01 T01560112  RH  075%=      5-min Rain = 0
KCA1 120701Z 10002KT 16/11 A3007 RMK A01 T01560112  RH  075%=      5-min Rain = 0
KCA1 120702Z 15002KT 16/11 A3007 RMK A01 T01560111  RH  075%=      5-min Rain = 0
KCA1 120703Z 12002KT 16/11 A3007 RMK A01 T01560111  RH  075%=      5-min Rain = 0
KCA1 120704Z 16001KT 16/11 A3007 RMK A01 T01570112  RH  075%=      5-min Rain = 0
KCA1 120705Z 18001KT 16/11 A3007 RMK A01 T01580112  RH  074%=      5-min Rain = 0
KCA1 120706Z 16002KT 16/11 A3007 RMK A01 T01600112  RH  074%=      5-min Rain = 0
KCA1 120707Z 15002KT 16/11 A3007 RMK A01 T01610112  RH  073%=      5-min Rain = 0
KCA1 120708Z 16001KT 16/11 A3007 RMK A01 T01610112  RH  073%=      5-min Rain = 0
KCA1 120709Z 14002KT 16/11 A3007 RMK A01 T01610112  RH  073%=      5-min Rain = 0
KCA1 120710Z 15002KT 16/11 A3007 RMK A01 T01610112  RH  073%=      5-min Rain = 0
KCA1 120711Z 16001KT 16/11 A3007 RMK A01 T01620113  RH  072%=      5-min Rain = 0
KCA1 120712Z 16001KT 16/11 A3007 RMK A01 T01630113  RH  072%=      5-min Rain = 0
KCA1 120713Z 16001KT 16/11 A3007 RMK A01 T01630114  RH  072%=      5-min Rain = 0
KCA1 120714Z 17001KT 16/11 A3007 RMK A01 T01630113  RH  072%=      5-min Rain = 0
KCA1 120715Z 17001KT 16/11 A3007 RMK A01 T01620113  RH  072%=      5-min Rain = 0
KCA1 120716Z 15001KT 16/11 A3007 RMK A01 T01610113  RH  073%=      5-min Rain = 0
KCA1 120717Z 12001KT 16/12 A3007 RMK A01 T01600116  RH  075%=      5-min Rain = 0
KCA1 120718Z 10001KT 16/12 A3007 RMK A01 T01590116  RH  076%=      5-min Rain = 0
KCA1 120719Z 08001KT 16/11 A3007 RMK A01 T01580114  RH  075%=      5-min Rain = 0
KCA1 120720Z 08001KT 16/11 A3007 RMK A01 T01570112  RH  075%=      5-min Rain = 0
KCA1 120721Z 08001KT 16/11 A3007 RMK A01 T01560111  RH  075%=      5-min Rain = 0
KCA1 120722Z 09001KT 16/11 A3007 RMK A01 T01550112  RH  075%=      5-min Rain = 0
KCA1 120723Z 08001KT 16/11 A3007 RMK A01 T01550112  RH  076%=      5-min Rain = 0
KCA1 120724Z 08001KT 16/11 A3007 RMK A01 T01550112  RH  076%=      5-min Rain = 0
KCA1 120725Z 08002KT 16/11 A3007 RMK A01 T01550112  RH  076%=      5-min Rain = 0
KCA1 120726Z 08002KT 16/11 A3007 RMK A01 T01550112  RH  076%=      5-min Rain = 0
KCA1 120727Z 07002KT 15/11 A3007 RMK A01 T01540111  RH  075%=      5-min Rain = 0
KCA1 120728Z 09002KT 15/11 A3007 RMK A01 T01530110  RH  075%=      5-min Rain = 0
KCA1 120729Z 09002KT 15/11 A3007 RMK A01 T01510109  RH  076%=      5-min Rain = 0
KCA1 120730Z 09002KT 15/11 A3006 RMK A01 T01500109  RH  076%=      5-min Rain = 0
KCA1 120731Z 10002KT 15/11 A3006 RMK A01 T01490108  RH  077%=      5-min Rain = 0
KCA1 120732Z 09003KT 15/11 A3006 RMK A01 T01480109  RH  077%=      5-min Rain = 0
KCA1 120733Z 09003KT 15/11 A3006 RMK A01 T01480109  RH  077%=      5-min Rain = 0
KCA1 120734Z 09002KT 15/11 A3006 RMK A01 T01490109  RH  077%=      5-min Rain = 0
KCA1 120735Z 10002KT 15/11 A3006 RMK A01 T01490109  RH  077%=      5-min Rain = 0
KCA1 120736Z 10002KT 15/11 A3006 RMK A01 T01490109  RH  077%=      5-min Rain = 0
KCA1 120737Z 10002KT 15/11 A3006 RMK A01 T01490109  RH  077%=      5-min Rain = 0
KCA1 120738Z 09003KT 15/11 A3006 RMK A01 T01500110  RH  077%=      5-min Rain = 0
KCA1 120739Z 09003KT 15/11 A3006 RMK A01 T01520111  RH  077%=      5-min Rain = 0
KCA1 120740Z 09003KT 15/11 A3006 RMK A01 T01520110  RH  076%=      5-min Rain = 0
KCA1 120741Z 09003KT 15/11 A3006 RMK A01 T01520109  RH  075%=      5-min Rain = 0
KCA1 120742Z 09003KT 15/11 A3006 RMK A01 T01510108  RH  075%=      5-min Rain = 0
KCA1 120743Z 08003KT 15/11 A3006 RMK A01 T01500107  RH  076%=      5-min Rain = 0
KCA1 120744Z 08003KT 15/11 A3006 RMK A01 T01480107  RH  076%=      5-min Rain = 0
KCA1 120745Z 08003KT 15/11 A3006 RMK A01 T01470107  RH  077%=      5-min Rain = 0
KCA1 120746Z 08003KT 15/11 A3006 RMK A01 T01470107  RH  077%=      5-min Rain = 0
KCA1 120747Z 08003KT 15/11 A3006 RMK A01 T01470108  RH  077%=      5-min Rain = 0
KCA1 120748Z 08003KT 15/11 A3006 RMK A01 T01480108  RH  077%=      5-min Rain = 0
KCA1 120749Z 08003KT 15/11 A3006 RMK A01 T01490108  RH  077%=      5-min Rain = 0
KCA1 120750Z 08003KT 15/11 A3006 RMK A01 T01490108  RH  077%=      5-min Rain = 0
KCA1 120751Z 08003KT 15/11 A3006 RMK A01 T01490108  RH  077%=      5-min Rain = 0
KCA1 120752Z 09003KT 15/11 A3006 RMK A01 T01490109  RH  077%=      5-min Rain = 0
KCA1 120753Z 09003KT 15/11 A3006 RMK A01 T01500109  RH  076%=      5-min Rain = 0
KCA1 120754Z 08003KT 15/11 A3006 RMK A01 T01500109  RH  076%=      5-min Rain = 0
KCA1 120755Z 08003KT 15/11 A3006 RMK A01 T01510109  RH  076%=      5-min Rain = 0
KCA1 120756Z 08003KT 15/11 A3006 RMK A01 T01500109  RH  076%=      5-min Rain = 0
KCA1 120757Z 08003KT 15/11 A3006 RMK A01 T01500108  RH  076%=      5-min Rain = 0
KCA1 120758Z 08003KT 15/11 A3006 RMK A01 T01490108  RH  077%=      5-min Rain = 0
KCA1 120759Z 08003KT 15/11 A3006 RMK A01 T01480108  RH  077%=      5-min Rain = 0
KCA1 120800Z 08003KT 15/11 A3006 RMK A01 T01480108  RH  077%=      5-min Rain = 0
KCA1 120801Z 07003KT 15/11 A3006 RMK A01 T01470108  RH  077%=      5-min Rain = 0
KCA1 120802Z 07003KT 15/11 A3006 RMK A01 T01470108  RH  077%=      5-min Rain = 0
KCA1 120803Z 07003KT 15/11 A3006 RMK A01 T01460108  RH  078%=      5-min Rain = 0
KCA1 120804Z 06004KT 15/11 A3006 RMK A01 T01460108  RH  078%=      5-min Rain = 0
KCA1 120805Z 06004KT 15/11 A3006 RMK A01 T01450107  RH  078%=      5-min Rain = 0
KCA1 120806Z 06004KT 14/11 A3006 RMK A01 T01440107  RH  079%=      5-min Rain = 0
KCA1 120807Z 07004KT 14/11 A3006 RMK A01 T01440108  RH  079%=      5-min Rain = 0
KCA1 120808Z 07004KT 14/11 A3006 RMK A01 T01440108  RH  079%=      5-min Rain = 0
KCA1 120809Z 07004KT 14/11 A3006 RMK A01 T01430108  RH  079%=      5-min Rain = 0
KCA1 120810Z 08004KT 14/11 A3006 RMK A01 T01440109  RH  080%=      5-min Rain = 0
KCA1 120811Z 08004KT 14/11 A3006 RMK A01 T01440109  RH  079%=      5-min Rain = 0
KCA1 120812Z 08005KT 14/11 A3006 RMK A01 T01440109  RH  079%=      5-min Rain = 0
KCA1 120813Z 08005KT 15/11 A3006 RMK A01 T01450109  RH  079%=      5-min Rain = 0
KCA1 120814Z 08005KT 15/11 A3006 RMK A01 T01450109  RH  079%=      5-min Rain = 0
KCA1 120815Z 08005KT 15/11 A3006 RMK A01 T01460109  RH  078%=      5-min Rain = 0
KCA1 120816Z 08005KT 15/11 A3006 RMK A01 T01460109  RH  078%=      5-min Rain = 0
KCA1 120817Z 08005KT 15/11 A3006 RMK A01 T01460109  RH  078%=      5-min Rain = 0
KCA1 120818Z 08005KT 15/11 A3006 RMK A01 T01450108  RH  079%=      5-min Rain = 0
KCA1 120819Z 08005KT 15/11 A3006 RMK A01 T01450108  RH  079%=      5-min Rain = 0
KCA1 120820Z 08005KT 15/11 A3006 RMK A01 T01450108  RH  079%=      5-min Rain = 0
KCA1 120821Z 08005KT 14/11 A3006 RMK A01 T01440108  RH  079%=      5-min Rain = 0
KCA1 120822Z 08005KT 14/11 A3006 RMK A01 T01440108  RH  079%=      5-min Rain = 0
KCA1 120823Z 08005KT 14/11 A3005 RMK A01 T01430108  RH  079%=      5-min Rain = 0
KCA1 120824Z 08005KT 14/11 A3005 RMK A01 T01430108  RH  079%=      5-min Rain = 0
KCA1 120825Z 08005KT 14/11 A3005 RMK A01 T01430107  RH  079%=      5-min Rain = 0
KCA1 120826Z 08005KT 14/11 A3005 RMK A01 T01420107  RH  079%=      5-min Rain = 0
KCA1 120827Z 08005KT 14/11 A3005 RMK A01 T01420108  RH  080%=      5-min Rain = 0
KCA1 120828Z 08005KT 14/11 A3005 RMK A01 T01420108  RH  080%=      5-min Rain = 0
KCA1 120829Z 08005KT 14/11 A3005 RMK A01 T01420108  RH  080%=      5-min Rain = 0
KCA1 120830Z 08005KT 14/11 A3005 RMK A01 T01420107  RH  079%=      5-min Rain = 0
KCA1 120831Z 08005KT 14/11 A3005 RMK A01 T01430108  RH  079%=      5-min Rain = 0
KCA1 120832Z 08005KT 14/11 A3005 RMK A01 T01420107  RH  079%=      5-min Rain = 0
KCA1 120833Z 08005KT 14/11 A3005 RMK A01 T01430107  RH  079%=      5-min Rain = 0
KCA1 120834Z 08005KT 14/11 A3005 RMK A01 T01430107  RH  079%=      5-min Rain = 0
KCA1 120835Z 09005KT 14/11 A3005 RMK A01 T01430107  RH  079%=      5-min Rain = 0
KCA1 120836Z 09005KT 14/11 A3005 RMK A01 T01440108  RH  079%=      5-min Rain = 0
KCA1 120837Z 09005KT 15/11 A3005 RMK A01 T01450108  RH  078%=      5-min Rain = 0
KCA1 120838Z 09005KT 15/11 A3005 RMK A01 T01460108  RH  078%=      5-min Rain = 0
KCA1 120839Z 09005KT 15/11 A3005 RMK A01 T01470108  RH  078%=      5-min Rain = 0
KCA1 120840Z 09005KT 15/11 A3005 RMK A01 T01470108  RH  078%=      5-min Rain = 0
KCA1 120841Z 09005KT 15/11 A3005 RMK A01 T01470108  RH  078%=      5-min Rain = 0
KCA1 120842Z 09006KT 15/11 A3005 RMK A01 T01470108  RH  077%=      5-min Rain = 0
KCA1 120843Z 09006KT 15/11 A3005 RMK A01 T01470108  RH  077%=      5-min Rain = 0
KCA1 120844Z 09006KT 15/11 A3005 RMK A01 T01470108  RH  077%=      5-min Rain = 0
KCA1 120845Z 09006KT 15/11 A3005 RMK A01 T01470108  RH  077%=      5-min Rain = 0
KCA1 120846Z 09006KT 15/11 A3005 RMK A01 T01470108  RH  077%=      5-min Rain = 0
KCA1 120847Z 09006KT 15/11 A3005 RMK A01 T01470108  RH  077%=      5-min Rain = 0
KCA1 120848Z 09006KT 15/11 A3005 RMK A01 T01470108  RH  077%=      5-min Rain = 0
KCA1 120849Z 09006KT 15/11 A3005 RMK A01 T01470109  RH  077%=      5-min Rain = 0
KCA1 120850Z 09006KT 15/11 A3005 RMK A01 T01470108  RH  077%=      5-min Rain = 0
KCA1 120851Z 10005KT 15/11 A3005 RMK A01 T01470108  RH  077%=      5-min Rain = 0
KCA1 120852Z 10005KT 15/11 A3005 RMK A01 T01470108  RH  077%=      5-min Rain = 0
KCA1 120853Z 10005KT 15/11 A3005 RMK A01 T01470108  RH  077%=      5-min Rain = 0
KCA1 120854Z 11003KT 15/11 A3005 RMK A01 T01480108  RH  077%=      5-min Rain = 0
KCA1 120855Z 18002KT 15/11 A3005 RMK A01 T01470109  RH  078%=      5-min Rain = 0
KCA1 120856Z 17002KT 15/11 A3005 RMK A01 T01450109  RH  079%=      5-min Rain = 0
KCA1 120857Z 12002KT 14/11 A3006 RMK A01 T01440109  RH  079%=      5-min Rain = 0
KCA1 120858Z 12003KT 14/11 A3006 RMK A01 T01440109  RH  080%=      5-min Rain = 0
KCA1 120859Z 11003KT 14/11 A3006 RMK A01 T01440109  RH  080%=      5-min Rain = 0
KCA1 120900Z 10003KT 14/11 A3006 RMK A01 T01440109  RH  079%=      5-min Rain = 0
KCA1 120901Z 10004KT 14/11 A3006 RMK A01 T01440109  RH  079%=      5-min Rain = 0
KCA1 120902Z 10004KT 14/11 A3006 RMK A01 T01440109  RH  079%=      5-min Rain = 0
KCA1 120903Z 10004KT 15/11 A3005 RMK A01 T01460109  RH  078%=      5-min Rain = 0
KCA1 120904Z 09004KT 15/11 A3006 RMK A01 T01470109  RH  078%=      5-min Rain = 0
KCA1 120905Z 09004KT 15/11 A3006 RMK A01 T01480109  RH  077%=      5-min Rain = 0
KCA1 120906Z 09004KT 15/11 A3006 RMK A01 T01490109  RH  077%=      5-min Rain = 0
KCA1 120907Z 08004KT 15/11 A3006 RMK A01 T01500109  RH  076%=      5-min Rain = 0
KCA1 120908Z 08003KT 15/11 A3006 RMK A01 T01510109  RH  076%=      5-min Rain = 0
KCA1 120909Z 08003KT 15/11 A3006 RMK A01 T01510109  RH  076%=      5-min Rain = 0
KCA1 120910Z 08003KT 15/11 A3005 RMK A01 T01510109  RH  076%=      5-min Rain = 0
KCA1 120911Z 08003KT 15/11 A3005 RMK A01 T01510108  RH  076%=      5-min Rain = 0
KCA1 120912Z 09003KT 15/11 A3005 RMK A01 T01500108  RH  076%=      5-min Rain = 0
KCA1 120913Z 09003KT 15/11 A3005 RMK A01 T01500108  RH  076%=      5-min Rain = 0
KCA1 120914Z 09003KT 15/11 A3005 RMK A01 T01500108  RH  076%=      5-min Rain = 0
KCA1 120915Z 09003KT 15/11 A3005 RMK A01 T01500108  RH  076%=      5-min Rain = 0
KCA1 120916Z 09002KT 15/11 A3005 RMK A01 T01490107  RH  076%=      5-min Rain = 0
KCA1 120917Z 08002KT 15/11 A3005 RMK A01 T01480107  RH  076%=      5-min Rain = 0
KCA1 120918Z 06002KT 15/11 A3005 RMK A01 T01470106  RH  077%=      5-min Rain = 0
KCA1 120919Z 06002KT 15/11 A3005 RMK A01 T01450105  RH  077%=      5-min Rain = 0
KCA1 120920Z 06002KT 14/11 A3005 RMK A01 T01420106  RH  078%=      5-min Rain = 0
KCA1 120921Z 07002KT 14/11 A3005 RMK A01 T01420107  RH  079%=      5-min Rain = 0
KCA1 120922Z 08002KT 14/11 A3005 RMK A01 T01420107  RH  079%=      5-min Rain = 0
KCA1 120923Z 09002KT 14/11 A3005 RMK A01 T01430107  RH  079%=      5-min Rain = 0
KCA1 120924Z 09002KT 15/11 A3005 RMK A01 T01450107  RH  078%=      5-min Rain = 0
KCA1 120925Z 09000KT 15/11 A3005 RMK A01 T01450107  RH  078%=      5-min Rain = 0
KCA1 120926Z 00000KT 14/11 A3005 RMK A01 T01430106  RH  078%=      5-min Rain = 0
KCA1 120927Z 22000KT 14/11 A3005 RMK A01 T01410106  RH  079%=      5-min Rain = 0
KCA1 120928Z 00000KT 14/11 A3005 RMK A01 T01390107  RH  081%=      5-min Rain = 0
KCA1 120929Z 00000KT 14/11 A3005 RMK A01 T01370108  RH  083%=      5-min Rain = 0
KCA1 120930Z 00000KT 14/11 A3005 RMK A01 T01360109  RH  084%=      5-min Rain = 0
KCA1 120931Z 25001KT 14/11 A3005 RMK A01 T01360110  RH  084%=      5-min Rain = 0
KCA1 120932Z 27001KT 14/11 A3005 RMK A01 T01350109  RH  084%=      5-min Rain = 0
KCA1 120933Z 27001KT 14/11 A3005 RMK A01 T01350110  RH  085%=      5-min Rain = 0
KCA1 120934Z 28002KT 14/11 A3005 RMK A01 T01350110  RH  085%=      5-min Rain = 0
KCA1 120935Z 31002KT 14/11 A3005 RMK A01 T01350110  RH  085%=      5-min Rain = 0
KCA1 120936Z 31003KT 14/11 A3005 RMK A01 T01350110  RH  085%=      5-min Rain = 0
KCA1 120937Z 31003KT 14/11 A3005 RMK A01 T01350110  RH  085%=      5-min Rain = 0
KCA1 120938Z 31002KT 13/11 A3005 RMK A01 T01340110  RH  085%=      5-min Rain = 0
KCA1 120939Z 31002KT 13/11 A3005 RMK A01 T01330110  RH  086%=      5-min Rain = 0
KCA1 120940Z 31002KT 13/11 A3005 RMK A01 T01330110  RH  086%=      5-min Rain = 0
KCA1 120941Z 30003KT 13/11 A3005 RMK A01 T01330110  RH  086%=      5-min Rain = 0
KCA1 120942Z 30003KT 13/11 A3005 RMK A01 T01330109  RH  085%=      5-min Rain = 0
KCA1 120943Z 29004KT 13/11 A3005 RMK A01 T01320108  RH  085%=      5-min Rain = 0
KCA1 120944Z 30003KT 13/11 A3005 RMK A01 T01320108  RH  086%=      5-min Rain = 0
KCA1 120945Z 30003KT 13/11 A3005 RMK A01 T01320109  RH  086%=      5-min Rain = 0
KCA1 120946Z 30003KT 13/11 A3005 RMK A01 T01320109  RH  086%=      5-min Rain = 0
KCA1 120947Z 31003KT 13/11 A3005 RMK A01 T01320109  RH  086%=      5-min Rain = 0
KCA1 120948Z 31003KT 13/11 A3005 RMK A01 T01320109  RH  086%=      5-min Rain = 0
KCA1 120949Z 30003KT 13/11 A3005 RMK A01 T01330109  RH  086%=      5-min Rain = 0
KCA1 120950Z 30003KT 13/11 A3005 RMK A01 T01330109  RH  085%=      5-min Rain = 0
KCA1 120951Z 31003KT 13/11 A3005 RMK A01 T01340109  RH  085%=      5-min Rain = 0
KCA1 120952Z 31002KT 13/11 A3005 RMK A01 T01340108  RH  084%=      5-min Rain = 0
KCA1 120953Z 32002KT 13/11 A3005 RMK A01 T01340108  RH  084%=      5-min Rain = 0
KCA1 120954Z 33002KT 13/11 A3005 RMK A01 T01340108  RH  084%=      5-min Rain = 0
KCA1 120955Z 33002KT 13/11 A3005 RMK A01 T01340107  RH  084%=      5-min Rain = 0
KCA1 120956Z 34002KT 13/11 A3005 RMK A01 T01330106  RH  084%=      5-min Rain = 0
KCA1 120957Z 33002KT 13/11 A3005 RMK A01 T01330105  RH  083%=      5-min Rain = 0
KCA1 120958Z 32002KT 13/11 A3005 RMK A01 T01330106  RH  083%=      5-min Rain = 0
KCA1 120959Z 32002KT 13/11 A3005 RMK A01 T01330105  RH  083%=      5-min Rain = 0
KCA1 121000Z 33001KT 13/11 A3005 RMK A01 T01330105  RH  083%=      5-min Rain = 0
KCA1 121001Z 35001KT 13/10 A3005 RMK A01 T01330104  RH  083%=      5-min Rain = 0
KCA1 121002Z 36002KT 13/10 A3005 RMK A01 T01330104  RH  083%=      5-min Rain = 0
KCA1 121003Z 00002KT 13/11 A3005 RMK A01 T01340105  RH  083%=      5-min Rain = 0
KCA1 121004Z 00002KT 13/11 A3005 RMK A01 T01340105  RH  082%=      5-min Rain = 0
KCA1 121005Z 00001KT 14/11 A3005 RMK A01 T01350105  RH  082%=      5-min Rain = 0
KCA1 121006Z 00001KT 14/11 A3005 RMK A01 T01350105  RH  082%=      5-min Rain = 0
KCA1 121007Z 01001KT 14/11 A3005 RMK A01 T01350105  RH  082%=      5-min Rain = 0
KCA1 121008Z 02001KT 14/11 A3005 RMK A01 T01360105  RH  082%=      5-min Rain = 0
KCA1 121009Z 02001KT 14/11 A3005 RMK A01 T01370105  RH  081%=      5-min Rain = 0
KCA1 121010Z 02001KT 14/11 A3005 RMK A01 T01380105  RH  081%=      5-min Rain = 0
KCA1 121011Z 02001KT 14/11 A3005 RMK A01 T01380105  RH  080%=      5-min Rain = 0
KCA1 121012Z 03001KT 14/11 A3005 RMK A01 T01380105  RH  081%=      5-min Rain = 0
KCA1 121013Z 04001KT 14/11 A3005 RMK A01 T01380105  RH  080%=      5-min Rain = 0
KCA1 121014Z 05000KT 14/11 A3005 RMK A01 T01380105  RH  080%=      5-min Rain = 0
KCA1 121015Z 07000KT 14/10 A3005 RMK A01 T01370104  RH  080%=      5-min Rain = 0
KCA1 121016Z 07000KT 14/10 A3005 RMK A01 T01370104  RH  081%=      5-min Rain = 0
KCA1 121017Z 10000KT 14/10 A3005 RMK A01 T01360104  RH  081%=      5-min Rain = 0
KCA1 121018Z 10001KT 14/11 A3005 RMK A01 T01360105  RH  082%=      5-min Rain = 0
KCA1 121019Z 11001KT 14/11 A3004 RMK A01 T01370105  RH  081%=      5-min Rain = 0
KCA1 121020Z 10001KT 14/11 A3004 RMK A01 T01370105  RH  081%=      5-min Rain = 0
KCA1 121021Z 07001KT 14/11 A3004 RMK A01 T01370105  RH  081%=      5-min Rain = 0
KCA1 121022Z 06001KT 14/11 A3004 RMK A01 T01380105  RH  081%=      5-min Rain = 0
KCA1 121023Z 08001KT 14/11 A3004 RMK A01 T01380105  RH  080%=      5-min Rain = 0
KCA1 121024Z 09001KT 14/11 A3004 RMK A01 T01380105  RH  081%=      5-min Rain = 0
KCA1 121025Z 10001KT 14/10 A3004 RMK A01 T01370104  RH  081%=      5-min Rain = 0
KCA1 121026Z 12001KT 14/10 A3004 RMK A01 T01360104  RH  081%=      5-min Rain = 0
KCA1 121027Z 14001KT 14/10 A3004 RMK A01 T01360104  RH  081%=      5-min Rain = 0
KCA1 121028Z 15000KT 14/10 A3004 RMK A01 T01360104  RH  081%=      5-min Rain = 0
KCA1 121029Z 20000KT 14/10 A3004 RMK A01 T01350104  RH  082%=      5-min Rain = 0
KCA1 121030Z 20001KT 14/11 A3004 RMK A01 T01350105  RH  082%=      5-min Rain = 0
KCA1 121031Z 21001KT 14/11 A3004 RMK A01 T01360106  RH  082%=      5-min Rain = 0
KCA1 121032Z 21001KT 14/11 A3004 RMK A01 T01380106  RH  081%=      5-min Rain = 0
KCA1 121033Z 22001KT 14/11 A3004 RMK A01 T01390107  RH  081%=      5-min Rain = 0
KCA1 121034Z 22000KT 14/11 A3004 RMK A01 T01390107  RH  081%=      5-min Rain = 0
KCA1 121035Z 00000KT 14/11 A3004 RMK A01 T01400107  RH  080%=      5-min Rain = 0
KCA1 121036Z 00000KT 14/11 A3004 RMK A01 T01410107  RH  080%=      5-min Rain = 0
KCA1 121037Z 00000KT 14/11 A3004 RMK A01 T01420107  RH  080%=      5-min Rain = 0
KCA1 121038Z 00000KT 14/11 A3004 RMK A01 T01420107  RH  080%=      5-min Rain = 0
KCA1 121039Z 00000KT 14/11 A3004 RMK A01 T01420107  RH  080%=      5-min Rain = 0
KCA1 121040Z 00000KT 14/11 A3004 RMK A01 T01420107  RH  079%=      5-min Rain = 0
KCA1 121041Z 25000KT 14/11 A3004 RMK A01 T01420107  RH  079%=      5-min Rain = 0
KCA1 121042Z 25001KT 14/11 A3005 RMK A01 T01420108  RH  080%=      5-min Rain = 0
KCA1 121043Z 25001KT 14/11 A3005 RMK A01 T01420108  RH  080%=      5-min Rain = 0
KCA1 121044Z 25000KT 14/11 A3005 RMK A01 T01430108  RH  079%=      5-min Rain = 0
KCA1 121045Z 00000KT 14/11 A3005 RMK A01 T01430107  RH  079%=      5-min Rain = 0
KCA1 121046Z 00000KT 14/11 A3005 RMK A01 T01430107  RH  079%=      5-min Rain = 0
KCA1 121047Z 00000KT 14/11 A3005 RMK A01 T01420106  RH  079%=      5-min Rain = 0
KCA1 121048Z 00000KT 14/11 A3005 RMK A01 T01420107  RH  079%=      5-min Rain = 0
KCA1 121049Z 06000KT 14/11 A3005 RMK A01 T01430107  RH  079%=      5-min Rain = 0
KCA1 121050Z 06001KT 14/11 A3005 RMK A01 T01420106  RH  079%=      5-min Rain = 0
KCA1 121051Z 06001KT 14/10 A3005 RMK A01 T01410104  RH  078%=      5-min Rain = 0
KCA1 121052Z 05001KT 14/10 A3005 RMK A01 T01380103  RH  079%=      5-min Rain = 0
KCA1 121053Z 05001KT 14/10 A3005 RMK A01 T01350102  RH  080%=      5-min Rain = 0
KCA1 121054Z 05001KT 13/10 A3005 RMK A01 T01340103  RH  081%=      5-min Rain = 0
KCA1 121055Z 05001KT 13/10 A3005 RMK A01 T01330103  RH  082%=      5-min Rain = 0
KCA1 121056Z 05001KT 13/10 A3005 RMK A01 T01340104  RH  082%=      5-min Rain = 0
KCA1 121057Z 05001KT 14/11 A3005 RMK A01 T01350105  RH  082%=      5-min Rain = 0
KCA1 121058Z 05002KT 14/10 A3005 RMK A01 T01360104  RH  081%=      5-min Rain = 0
KCA1 121059Z 05002KT 14/10 A3005 RMK A01 T01360103  RH  081%=      5-min Rain = 0
KCA1 121100Z 05002KT 14/10 A3005 RMK A01 T01350103  RH  081%=      5-min Rain = 0
KCA1 121101Z 05002KT 13/10 A3005 RMK A01 T01340103  RH  081%=      5-min Rain = 0
KCA1 121102Z 05002KT 13/10 A3005 RMK A01 T01340103  RH  081%=      5-min Rain = 0
KCA1 121103Z 05002KT 13/10 A3005 RMK A01 T01330102  RH  082%=      5-min Rain = 0
KCA1 121104Z 06003KT 13/10 A3005 RMK A01 T01330103  RH  082%=      5-min Rain = 0
KCA1 121105Z 06003KT 13/10 A3005 RMK A01 T01320103  RH  082%=      5-min Rain = 0
KCA1 121106Z 07002KT 13/10 A3005 RMK A01 T01330104  RH  082%=      5-min Rain = 0
KCA1 121107Z 07003KT 13/10 A3005 RMK A01 T01340104  RH  082%=      5-min Rain = 0
KCA1 121108Z 07002KT 13/10 A3005 RMK A01 T01340104  RH  082%=      5-min Rain = 0
KCA1 121109Z 07002KT 13/10 A3005 RMK A01 T01340104  RH  082%=      5-min Rain = 0
KCA1 121110Z 06002KT 13/10 A3005 RMK A01 T01330104  RH  082%=      5-min Rain = 0
KCA1 121111Z 06002KT 13/10 A3005 RMK A01 T01320103  RH  083%=      5-min Rain = 0
KCA1 121112Z 06002KT 13/10 A3005 RMK A01 T01320103  RH  083%=      5-min Rain = 0
KCA1 121113Z 06002KT 13/10 A3005 RMK A01 T01320103  RH  083%=      5-min Rain = 0
KCA1 121114Z 07002KT 13/10 A3005 RMK A01 T01310103  RH  083%=      5-min Rain = 0
KCA1 121115Z 07001KT 13/10 A3004 RMK A01 T01310104  RH  083%=      5-min Rain = 0
KCA1 121116Z 08001KT 13/10 A3004 RMK A01 T01310104  RH  083%=      5-min Rain = 0
KCA1 121117Z 09001KT 13/10 A3004 RMK A01 T01320104  RH  083%=      5-min Rain = 0
KCA1 121118Z 10001KT 13/10 A3004 RMK A01 T01330104  RH  083%=      5-min Rain = 0
KCA1 121119Z 14001KT 13/10 A3004 RMK A01 T01330104  RH  083%=      5-min Rain = 0
KCA1 121120Z 18001KT 13/10 A3004 RMK A01 T01340104  RH  082%=      5-min Rain = 0
KCA1 121121Z 19001KT 14/11 A3004 RMK A01 T01350105  RH  082%=      5-min Rain = 0
KCA1 121122Z 20002KT 13/11 A3004 RMK A01 T01340105  RH  082%=      5-min Rain = 0
KCA1 121123Z 23001KT 13/11 A3004 RMK A01 T01340106  RH  083%=      5-min Rain = 0
KCA1 121124Z 24002KT 13/11 A3004 RMK A01 T01330106  RH  084%=      5-min Rain = 0
KCA1 121125Z 23002KT 13/11 A3004 RMK A01 T01310105  RH  084%=      5-min Rain = 0
KCA1 121126Z 23002KT 13/10 A3004 RMK A01 T01290104  RH  085%=      5-min Rain = 0
KCA1 121127Z 23002KT 13/10 A3004 RMK A01 T01280103  RH  085%=      5-min Rain = 0
KCA1 121128Z 23003KT 13/10 A3004 RMK A01 T01270103  RH  086%=      5-min Rain = 0
KCA1 121129Z 23003KT 13/10 A3004 RMK A01 T01260104  RH  086%=      5-min Rain = 0
KCA1 121130Z 23002KT 13/10 A3004 RMK A01 T01260104  RH  087%=      5-min Rain = 0
KCA1 121131Z 23002KT 13/11 A3004 RMK A01 T01250105  RH  087%=      5-min Rain = 0
KCA1 121132Z 23002KT 13/11 A3004 RMK A01 T01250105  RH  088%=      5-min Rain = 0
KCA1 121133Z 24002KT 13/11 A3004 RMK A01 T01250105  RH  088%=      5-min Rain = 0
KCA1 121134Z 24001KT 13/11 A3004 RMK A01 T01250105  RH  088%=      5-min Rain = 0
KCA1 121135Z 20001KT 12/11 A3004 RMK A01 T01240105  RH  088%=      5-min Rain = 0
KCA1 121136Z 17001KT 12/10 A3004 RMK A01 T01240104  RH  087%=      5-min Rain = 0
KCA1 121137Z 14001KT 12/11 A3004 RMK A01 T01240105  RH  088%=      5-min Rain = 0
KCA1 121138Z 12001KT 13/11 A3004 RMK A01 T01250105  RH  087%=      5-min Rain = 0
KCA1 121139Z 10001KT 13/10 A3004 RMK A01 T01250102  RH  086%=      5-min Rain = 0
KCA1 121140Z 10002KT 12/10 A3004 RMK A01 T01230102  RH  087%=      5-min Rain = 0
KCA1 121141Z 10002KT 12/10 A3004 RMK A01 T01230103  RH  088%=      5-min Rain = 0
KCA1 121142Z 09002KT 12/10 A3004 RMK A01 T01220103  RH  088%=      5-min Rain = 0
KCA1 121143Z 09003KT 12/10 A3004 RMK A01 T01220103  RH  088%=      5-min Rain = 0
KCA1 121144Z 10003KT 12/10 A3004 RMK A01 T01230104  RH  088%=      5-min Rain = 0
KCA1 121145Z 10003KT 12/10 A3004 RMK A01 T01240104  RH  088%=      5-min Rain = 0
KCA1 121146Z 09004KT 12/10 A3004 RMK A01 T01240104  RH  087%=      5-min Rain = 0
KCA1 121147Z 09004KT 12/10 A3004 RMK A01 T01240103  RH  087%=      5-min Rain = 0
KCA1 121148Z 09005KT 12/10 A3004 RMK A01 T01240103  RH  087%=      5-min Rain = 0
KCA1 121149Z 09006KT 12/10 A3004 RMK A01 T01230103  RH  087%=      5-min Rain = 0
KCA1 121150Z 08006KT 12/10 A3004 RMK A01 T01230103  RH  087%=      5-min Rain = 0
KCA1 121151Z 08006KT 12/10 A3004 RMK A01 T01230103  RH  087%=      5-min Rain = 0
KCA1 121152Z 08006KT 12/10 A3004 RMK A01 T01240103  RH  087%=      5-min Rain = 0
KCA1 121153Z 08006KT 12/10 A3004 RMK A01 T01240103  RH  087%=      5-min Rain = 0
KCA1 121154Z 08006KT 12/10 A3004 RMK A01 T01240104  RH  087%=      5-min Rain = 0
KCA1 121155Z 08006KT 13/10 A3004 RMK A01 T01250104  RH  087%=      5-min Rain = 0
KCA1 121156Z 08006KT 13/10 A3004 RMK A01 T01250104  RH  086%=      5-min Rain = 0
KCA1 121157Z 08006KT 13/10 A3004 RMK A01 T01260103  RH  086%=      5-min Rain = 0
KCA1 121158Z 08006KT 13/10 A3004 RMK A01 T01260103  RH  086%=      5-min Rain = 0
KCA1 121159Z 08005KT 13/10 A3004 RMK A01 T01270103  RH  086%=      5-min Rain = 0
KCA1 121200Z 08005KT 13/10 A3004 RMK A01 T01270103  RH  086%=      5-min Rain = 0
KCA1 121201Z 08005KT 13/10 A3004 RMK A01 T01280104  RH  085%=      5-min Rain = 0
KCA1 121202Z 08005KT 13/10 A3004 RMK A01 T01280104  RH  085%=      5-min Rain = 0
KCA1 121203Z 08005KT 13/10 A3004 RMK A01 T01280103  RH  085%=      5-min Rain = 0
KCA1 121204Z 08006KT 13/10 A3004 RMK A01 T01280103  RH  085%=      5-min Rain = 0
KCA1 121205Z 08006KT 13/10 A3004 RMK A01 T01280104  RH  085%=      5-min Rain = 0
KCA1 121206Z 08005KT 13/11 A3004 RMK A01 T01290105  RH  085%=      5-min Rain = 0
KCA1 121207Z 08005KT 13/11 A3004 RMK A01 T01290105  RH  085%=      5-min Rain = 0
KCA1 121208Z 09004KT 13/11 A3004 RMK A01 T01300106  RH  085%=      5-min Rain = 0
KCA1 121209Z 09004KT 13/11 A3004 RMK A01 T01310106  RH  085%=      5-min Rain = 0
KCA1 121210Z 09003KT 13/11 A3004 RMK A01 T01310106  RH  084%=      5-min Rain = 0
KCA1 121211Z 10003KT 13/11 A3004 RMK A01 T01320106  RH  084%=      5-min Rain = 0
KCA1 121212Z 09002KT 13/11 A3004 RMK A01 T01330106  RH  083%=      5-min Rain = 0
KCA1 121213Z 06001KT 13/11 A3004 RMK A01 T01340105  RH  083%=      5-min Rain = 0
KCA1 121214Z 07000KT 13/11 A3004 RMK A01 T01320105  RH  083%=      5-min Rain = 0
KCA1 121215Z 13000KT 13/11 A3004 RMK A01 T01320105  RH  084%=      5-min Rain = 0
KCA1 121216Z 11001KT 13/11 A3004 RMK A01 T01310105  RH  084%=      5-min Rain = 0
KCA1 121217Z 12000KT 13/11 A3004 RMK A01 T01310105  RH  084%=      5-min Rain = 0
KCA1 121218Z 00000KT 13/11 A3004 RMK A01 T01310105  RH  084%=      5-min Rain = 0
KCA1 121219Z 00000KT 13/10 A3004 RMK A01 T01300104  RH  084%=      5-min Rain = 0
KCA1 121220Z 00000KT 13/11 A3004 RMK A01 T01300105  RH  085%=      5-min Rain = 0
KCA1 121221Z 00000KT 13/11 A3004 RMK A01 T01300106  RH  085%=      5-min Rain = 0
KCA1 121222Z 00000KT 13/11 A3004 RMK A01 T01300105  RH  085%=      5-min Rain = 0
KCA1 121223Z 00000KT 13/11 A3004 RMK A01 T01310106  RH  085%=      5-min Rain = 0
KCA1 121224Z 00000KT 13/11 A3004 RMK A01 T01310106  RH  084%=      5-min Rain = 0
KCA1 121225Z 00000KT 13/10 A3004 RMK A01 T01310104  RH  084%=      5-min Rain = 0
KCA1 121226Z 00000KT 13/10 A3004 RMK A01 T01290102  RH  084%=      5-min Rain = 0
KCA1 121227Z 00000KT 13/10 A3004 RMK A01 T01280101  RH  084%=      5-min Rain = 0
KCA1 121228Z 00000KT 13/10 A3004 RMK A01 T01260101  RH  085%=      5-min Rain = 0
KCA1 121229Z 00000KT 13/10 A3004 RMK A01 T01250101  RH  085%=      5-min Rain = 0
KCA1 121230Z 00000KT 13/10 A3004 RMK A01 T01250101  RH  086%=      5-min Rain = 0
KCA1 121231Z 25001KT 12/10 A3004 RMK A01 T01240101  RH  086%=      5-min Rain = 0
KCA1 121232Z 25002KT 12/10 A3004 RMK A01 T01240102  RH  087%=      5-min Rain = 0
KCA1 121233Z 26002KT 12/10 A3004 RMK A01 T01230102  RH  087%=      5-min Rain = 0
KCA1 121234Z 26002KT 12/10 A3004 RMK A01 T01220101  RH  087%=      5-min Rain = 0
KCA1 121235Z 27001KT 12/10 A3004 RMK A01 T01210100  RH  087%=      5-min Rain = 0
KCA1 121236Z 29001KT 12/10 A3004 RMK A01 T01200101  RH  088%=      5-min Rain = 0
KCA1 121237Z 30000KT 12/10 A3004 RMK A01 T01200100  RH  088%=      5-min Rain = 0
KCA1 121238Z 00000KT 12/10 A3004 RMK A01 T01200101  RH  088%=      5-min Rain = 0
KCA1 121239Z 34000KT 12/10 A3004 RMK A01 T01200101  RH  088%=      5-min Rain = 0
KCA1 121240Z 33001KT 12/10 A3004 RMK A01 T01200101  RH  088%=      5-min Rain = 0
KCA1 121241Z 33001KT 12/10 A3004 RMK A01 T01190100  RH  088%=      5-min Rain = 0
KCA1 121242Z 33002KT 12/10 A3004 RMK A01 T01190100  RH  088%=      5-min Rain = 0
KCA1 121243Z 34002KT 12/10 A3004 RMK A01 T01180099  RH  088%=      5-min Rain = 0
KCA1 121244Z 35002KT 12/10 A3004 RMK A01 T01180100  RH  088%=      5-min Rain = 0
KCA1 121245Z 35002KT 12/10 A3004 RMK A01 T01180100  RH  089%=      5-min Rain = 0
KCA1 121246Z 34002KT 12/10 A3004 RMK A01 T01180100  RH  089%=      5-min Rain = 0
KCA1 121247Z 34002KT 12/10 A3004 RMK A01 T01180100  RH  089%=      5-min Rain = 0
KCA1 121248Z 33003KT 12/10 A3004 RMK A01 T01180100  RH  089%=      5-min Rain = 0
KCA1 121249Z 32003KT 12/10 A3004 RMK A01 T01190101  RH  089%=      5-min Rain = 0
KCA1 121250Z 32003KT 12/10 A3004 RMK A01 T01190101  RH  089%=      5-min Rain = 0
KCA1 121251Z 32003KT 12/10 A3004 RMK A01 T01200102  RH  089%=      5-min Rain = 0
KCA1 121252Z 31003KT 12/10 A3004 RMK A01 T01220103  RH  088%=      5-min Rain = 0
KCA1 121253Z 31003KT 12/10 A3004 RMK A01 T01230104  RH  088%=      5-min Rain = 0
KCA1 121254Z 31003KT 12/10 A3004 RMK A01 T01240104  RH  087%=      5-min Rain = 0
KCA1 121255Z 30003KT 13/10 A3004 RMK A01 T01260104  RH  087%=      5-min Rain = 0
KCA1 121256Z 31002KT 13/11 A3004 RMK A01 T01270105  RH  087%=      5-min Rain = 0
KCA1 121257Z 32002KT 13/11 A3004 RMK A01 T01290106  RH  086%=      5-min Rain = 0
KCA1 121258Z 33002KT 13/11 A3004 RMK A01 T01300106  RH  085%=      5-min Rain = 0
KCA1 121259Z 34002KT 13/11 A3004 RMK A01 T01300105  RH  085%=      5-min Rain = 0
KCA1 121300Z 35001KT 13/11 A3004 RMK A01 T01310106  RH  084%=      5-min Rain = 0
KCA1 121301Z 00001KT 13/11 A3004 RMK A01 T01320106  RH  084%=      5-min Rain = 0
KCA1 121302Z 01001KT 13/11 A3004 RMK A01 T01340107  RH  084%=      5-min Rain = 0
KCA1 121303Z 01001KT 14/11 A3004 RMK A01 T01350106  RH  083%=      5-min Rain = 0
KCA1 121304Z 01001KT 14/11 A3004 RMK A01 T01360107  RH  083%=      5-min Rain = 0
KCA1 121305Z 01001KT 14/11 A3004 RMK A01 T01370107  RH  082%=      5-min Rain = 0
KCA1 121306Z 01001KT 14/11 A3004 RMK A01 T01370107  RH  082%=      5-min Rain = 0
KCA1 121307Z 01001KT 14/11 A3004 RMK A01 T01380107  RH  082%=      5-min Rain = 0
KCA1 121308Z 01001KT 14/11 A3004 RMK A01 T01390107  RH  081%=      5-min Rain = 0
KCA1 121309Z 01001KT 14/11 A3004 RMK A01 T01400107  RH  081%=      5-min Rain = 0
KCA1 121310Z 01001KT 14/11 A3004 RMK A01 T01410108  RH  081%=      5-min Rain = 0
KCA1 121311Z 01000KT 14/11 A3004 RMK A01 T01420109  RH  080%=      5-min Rain = 0
KCA1 121312Z 01000KT 14/11 A3004 RMK A01 T01430108  RH  079%=      5-min Rain = 0
KCA1 121313Z 00000KT 14/11 A3004 RMK A01 T01440108  RH  079%=      5-min Rain = 0
KCA1 121314Z 00000KT 15/11 A3004 RMK A01 T01450110  RH  079%=      5-min Rain = 0
KCA1 121315Z 00000KT 15/11 A3004 RMK A01 T01460110  RH  079%=      5-min Rain = 0
KCA1 121316Z 00000KT 15/11 A3004 RMK A01 T01480111  RH  078%=      5-min Rain = 0
KCA1 121317Z 00000KT 15/11 A3004 RMK A01 T01500111  RH  078%=      5-min Rain = 0
KCA1 121318Z 00000KT 15/11 A3004 RMK A01 T01510111  RH  077%=      5-min Rain = 0
KCA1 121319Z 00000KT 15/11 A3004 RMK A01 T01520111  RH  076%=      5-min Rain = 0
KCA1 121320Z 00000KT 15/11 A3004 RMK A01 T01530111  RH  076%=      5-min Rain = 0
KCA1 121321Z 00000KT 15/11 A3004 RMK A01 T01530112  RH  076%=      5-min Rain = 0
KCA1 121322Z 00000KT 15/11 A3003 RMK A01 T01540113  RH  076%=      5-min Rain = 0
KCA1 121323Z 33000KT 16/11 A3003 RMK A01 T01550112  RH  076%=      5-min Rain = 0
KCA1 121324Z 32001KT 16/11 A3003 RMK A01 T01560112  RH  075%=      5-min Rain = 0
KCA1 121325Z 33001KT 16/11 A3003 RMK A01 T01570112  RH  075%=      5-min Rain = 0
KCA1 121326Z 33001KT 16/11 A3003 RMK A01 T01570114  RH  076%=      5-min Rain = 0
KCA1 121327Z 33001KT 16/12 A3003 RMK A01 T01580116  RH  076%=      5-min Rain = 0
KCA1 121328Z 33001KT 16/12 A3003 RMK A01 T01590117  RH  076%=      5-min Rain = 0
KCA1 121329Z 33001KT 16/12 A3003 RMK A01 T01600115  RH  075%=      5-min Rain = 0
KCA1 121330Z 35001KT 16/11 A3003 RMK A01 T01600114  RH  074%=      5-min Rain = 0
KCA1 121331Z 35001KT 16/11 A3003 RMK A01 T01600113  RH  074%=      5-min Rain = 0
KCA1 121332Z 36001KT 16/12 A3003 RMK A01 T01610115  RH  074%=      5-min Rain = 0
KCA1 121333Z 35001KT 16/12 A3003 RMK A01 T01610117  RH  075%=      5-min Rain = 0
KCA1 121334Z 31002KT 16/12 A3003 RMK A01 T01620117  RH  075%=      5-min Rain = 0
KCA1 121335Z 31001KT 16/12 A3003 RMK A01 T01630118  RH  074%=      5-min Rain = 0
KCA1 121336Z 32001KT 17/12 A3003 RMK A01 T01650118  RH  074%=      5-min Rain = 0
KCA1 121337Z 32002KT 17/12 A3003 RMK A01 T01660119  RH  073%=      5-min Rain = 0
KCA1 121338Z 32002KT 17/12 A3003 RMK A01 T01670118  RH  072%=      5-min Rain = 0
KCA1 121339Z 30002KT 17/12 A3003 RMK A01 T01670117  RH  072%=      5-min Rain = 0
KCA1 121340Z 30001KT 17/12 A3003 RMK A01 T01670117  RH  072%=      5-min Rain = 0
KCA1 121341Z 29002KT 17/12 A3003 RMK A01 T01680116  RH  071%=      5-min Rain = 0
KCA1 121342Z 29002KT 17/12 A3003 RMK A01 T01670115  RH  071%=      5-min Rain = 0
KCA1 121343Z 29002KT 17/12 A3003 RMK A01 T01660115  RH  072%=      5-min Rain = 0
KCA1 121344Z 29003KT 17/12 A3003 RMK A01 T01650115  RH  072%=      5-min Rain = 0
KCA1 121345Z 30003KT 17/12 A3003 RMK A01 T01650115  RH  072%=      5-min Rain = 0
KCA1 121346Z 29002KT 17/11 A3003 RMK A01 T01660114  RH  071%=      5-min Rain = 0
KCA1 121347Z 30002KT 17/11 A3003 RMK A01 T01650113  RH  071%=      5-min Rain = 0
KCA1 121348Z 30001KT 17/11 A3003 RMK A01 T01660114  RH  072%=      5-min Rain = 0
KCA1 121349Z 31001KT 17/12 A3003 RMK A01 T01660116  RH  072%=      5-min Rain = 0
KCA1 121350Z 31001KT 17/12 A3003 RMK A01 T01680117  RH  072%=      5-min Rain = 0
KCA1 121351Z 29001KT 17/12 A3003 RMK A01 T01690118  RH  072%=      5-min Rain = 0
KCA1 121352Z 28001KT 17/12 A3003 RMK A01 T01710120  RH  072%=      5-min Rain = 0
KCA1 121353Z 27000KT 17/12 A3003 RMK A01 T01720120  RH  071%=      5-min Rain = 0
KCA1 121354Z 25001KT 17/12 A3003 RMK A01 T01730121  RH  071%=      5-min Rain = 0
KCA1 121355Z 27001KT 17/12 A3003 RMK A01 T01740122  RH  071%=      5-min Rain = 0
KCA1 121356Z 26001KT 18/12 A3003 RMK A01 T01760122  RH  071%=      5-min Rain = 0
KCA1 121357Z 26001KT 18/12 A3003 RMK A01 T01760121  RH  070%=      5-min Rain = 0
KCA1 121358Z 26001KT 18/12 A3003 RMK A01 T01760121  RH  070%=      5-min Rain = 0
KCA1 121359Z 28001KT 18/12 A3003 RMK A01 T01760121  RH  070%=      5-min Rain = 0
KCA1 121400Z 30001KT 18/12 A3003 RMK A01 T01770121  RH  070%=      5-min Rain = 0
KCA1 121401Z 33001KT 18/12 A3003 RMK A01 T01770120  RH  069%=      5-min Rain = 0
KCA1 121402Z 02000KT 18/12 A3003 RMK A01 T01760119  RH  069%=      5-min Rain = 0
KCA1 121403Z 33000KT 18/12 A3003 RMK A01 T01770121  RH  069%=      5-min Rain = 0
KCA1 121404Z 35001KT 18/12 A3003 RMK A01 T01790122  RH  069%=      5-min Rain = 0
KCA1 121405Z 35001KT 18/12 A3003 RMK A01 T01810122  RH  068%=      5-min Rain = 0
KCA1 121406Z 30001KT 18/12 A3003 RMK A01 T01820122  RH  068%=      5-min Rain = 0
KCA1 121407Z 28001KT 18/12 A3003 RMK A01 T01830121  RH  067%=      5-min Rain = 0
KCA1 121408Z 28002KT 18/12 A3003 RMK A01 T01840122  RH  067%=      5-min Rain = 0
KCA1 121409Z 27002KT 19/12 A3003 RMK A01 T01850122  RH  067%=      5-min Rain = 0
KCA1 121410Z 26002KT 19/12 A3003 RMK A01 T01860121  RH  066%=      5-min Rain = 0
KCA1 121411Z 27002KT 19/12 A3003 RMK A01 T01860122  RH  066%=      5-min Rain = 0
KCA1 121412Z 26002KT 19/12 A3003 RMK A01 T01860122  RH  066%=      5-min Rain = 0
KCA1 121413Z 26003KT 19/12 A3003 RMK A01 T01850122  RH  067%=      5-min Rain = 0
KCA1 121414Z 27003KT 19/12 A3003 RMK A01 T01850122  RH  067%=      5-min Rain = 0
KCA1 121415Z 28003KT 19/12 A3003 RMK A01 T01850121  RH  066%=      5-min Rain = 0
KCA1 121416Z 27002KT 19/12 A3003 RMK A01 T01860120  RH  066%=      5-min Rain = 0
KCA1 121417Z 27001KT 19/12 A3003 RMK A01 T01860122  RH  066%=      5-min Rain = 0
KCA1 121418Z 26001KT 19/12 A3003 RMK A01 T01860123  RH  067%=      5-min Rain = 0
KCA1 121419Z 26001KT 19/12 A3003 RMK A01 T01880123  RH  066%=      5-min Rain = 0
KCA1 121420Z 25001KT 19/12 A3003 RMK A01 T01890122  RH  065%=      5-min Rain = 0
KCA1 121421Z 27001KT 19/12 A3003 RMK A01 T01900121  RH  064%=      5-min Rain = 0
KCA1 121422Z 29002KT 19/12 A3003 RMK A01 T01900119  RH  063%=      5-min Rain = 0
KCA1 121423Z 29001KT 19/12 A3003 RMK A01 T01900118  RH  063%=      5-min Rain = 0
KCA1 121424Z 28001KT 19/12 A3003 RMK A01 T01910120  RH  063%=      5-min Rain = 0
KCA1 121425Z 26002KT 19/12 A3003 RMK A01 T01920121  RH  063%=      5-min Rain = 0
KCA1 121426Z 24002KT 19/12 A3003 RMK A01 T01920122  RH  064%=      5-min Rain = 0
KCA1 121427Z 25002KT 19/12 A3003 RMK A01 T01930122  RH  063%=      5-min Rain = 0
KCA1 121428Z 27001KT 19/12 A3003 RMK A01 T01930121  RH  063%=      5-min Rain = 0
KCA1 121429Z 29001KT 19/12 A3003 RMK A01 T01940121  RH  063%=      5-min Rain = 0
KCA1 121430Z 31001KT 19/12 A3003 RMK A01 T01940119  RH  062%=      5-min Rain = 0
KCA1 121431Z 30001KT 19/12 A3003 RMK A01 T01940121  RH  062%=      5-min Rain = 0
KCA1 121432Z 33000KT 20/12 A3003 RMK A01 T01950122  RH  063%=      5-min Rain = 0
KCA1 121433Z 06000KT 20/12 A3003 RMK A01 T01960122  RH  062%=      5-min Rain = 0
KCA1 121434Z 07000KT 20/12 A3003 RMK A01 T01980123  RH  062%=      5-min Rain = 0
KCA1 121435Z 00000KT 20/12 A3003 RMK A01 T02000123  RH  061%=      5-min Rain = 0
KCA1 121436Z 06000KT 20/12 A3004 RMK A01 T02010122  RH  060%=      5-min Rain = 0
KCA1 121437Z 00000KT 20/12 A3004 RMK A01 T02030124  RH  060%=      5-min Rain = 0
KCA1 121438Z 11000KT 20/12 A3003 RMK A01 T02040124  RH  060%=      5-min Rain = 0
KCA1 121439Z 17000KT 21/13 A3003 RMK A01 T02070125  RH  060%=      5-min Rain = 0
KCA1 121440Z 10001KT 21/12 A3003 RMK A01 T02090124  RH  058%=      5-min Rain = 0
KCA1 121441Z 11002KT 21/12 A3003 RMK A01 T02100124  RH  058%=      5-min Rain = 0
KCA1 121442Z 10002KT 21/12 A3003 RMK A01 T02120124  RH  057%=      5-min Rain = 0
KCA1 121443Z 11002KT 21/13 A3004 RMK A01 T02130125  RH  057%=      5-min Rain = 0
KCA1 121444Z 10002KT 21/12 A3003 RMK A01 T02130124  RH  057%=      5-min Rain = 0
KCA1 121445Z 12003KT 21/12 A3003 RMK A01 T02140124  RH  057%=      5-min Rain = 0
KCA1 121446Z 12003KT 21/13 A3003 RMK A01 T02140125  RH  057%=      5-min Rain = 0
KCA1 121447Z 10002KT 22/13 A3003 RMK A01 T02150125  RH  057%=      5-min Rain = 0
KCA1 121448Z 10002KT 22/13 A3003 RMK A01 T02160126  RH  057%=      5-min Rain = 0
KCA1 121449Z 10003KT 22/13 A3003 RMK A01 T02170127  RH  057%=      5-min Rain = 0
KCA1 121450Z 12003KT 22/13 A3003 RMK A01 T02180126  RH  056%=      5-min Rain = 0
KCA1 121451Z 11004KT 22/13 A3003 RMK A01 T02190126  RH  055%=      5-min Rain = 0
KCA1 121452Z 11004KT 22/13 A3003 RMK A01 T02200126  RH  055%=      5-min Rain = 0
KCA1 121453Z 11004KT 22/12 A3003 RMK A01 T02210124  RH  054%=      5-min Rain = 0
KCA1 121454Z 10004KT 22/13 A3003 RMK A01 T02220126  RH  055%=      5-min Rain = 0
KCA1 121455Z 09005KT 22/12 A3003 RMK A01 T02220124  RH  054%=      5-min Rain = 0
KCA1 121456Z 10005KT 22/12 A3003 RMK A01 T02210122  RH  053%=      5-min Rain = 0
KCA1 121457Z 09005KT 22/12 A3003 RMK A01 T02220124  RH  054%=      5-min Rain = 0
KCA1 121458Z 09004KT 22/12 A3003 RMK A01 T02230122  RH  053%=      5-min Rain = 0
KCA1 121459Z 10004KT 22/13 A3003 RMK A01 T02230125  RH  054%=      5-min Rain = 0
KCA1 121500Z 10004KT 22/13 A3003 RMK A01 T02240128  RH  054%=      5-min Rain = 0
KCA1 121501Z 10005KT 23/13 A3003 RMK A01 T02260127  RH  053%=      5-min Rain = 0
KCA1 121502Z 10004KT 23/13 A3003 RMK A01 T02270126  RH  053%=      5-min Rain = 0
KCA1 121503Z 07005KT 23/13 A3003 RMK A01 T02280129  RH  054%=      5-min Rain = 0
KCA1 121504Z 09006KT 23/13 A3003 RMK A01 T02290128  RH  053%=      5-min Rain = 0
KCA1 121505Z 10005KT 23/13 A3003 RMK A01 T02280130  RH  054%=      5-min Rain = 0
KCA1 121506Z 09006KT 23/13 A3003 RMK A01 T02300130  RH  053%=      5-min Rain = 0
KCA1 121507Z 09005KT 23/13 A3003 RMK A01 T02300127  RH  052%=      5-min Rain = 0
KCA1 121508Z 09005KT 23/13 A3003 RMK A01 T02290128  RH  053%=      5-min Rain = 0
KCA1 121509Z 08007KT 23/13 A3003 RMK A01 T02300127  RH  052%=      5-min Rain = 0
KCA1 121510Z 09006KT 23/13 A3003 RMK A01 T02310126  RH  052%=      5-min Rain = 0
KCA1 121511Z 08006KT 23/13 A3003 RMK A01 T02310128  RH  052%=      5-min Rain = 0
KCA1 121512Z 09007KT 23/13 A3004 RMK A01 T02320128  RH  052%=      5-min Rain = 0
KCA1 121513Z 09008KT 23/13 A3004 RMK A01 T02330127  RH  051%=      5-min Rain = 0
KCA1 121514Z 09007KT 23/13 A3004 RMK A01 T02340128  RH  051%=      5-min Rain = 0
KCA1 121515Z 09008KT 24/13 A3004 RMK A01 T02350128  RH  051%=      5-min Rain = 0
KCA1 121516Z 08008KT 24/13 A3004 RMK A01 T02350126  RH  051%=      5-min Rain = 0
KCA1 121517Z 08006KT 23/13 A3004 RMK A01 T02340127  RH  051%=      5-min Rain = 0
KCA1 121518Z 09006KT 24/13 A3003 RMK A01 T02350128  RH  051%=      5-min Rain = 0
KCA1 121519Z 09007KT 24/13 A3004 RMK A01 T02370129  RH  051%=      5-min Rain = 0
KCA1 121520Z 08007KT 24/13 A3004 RMK A01 T02380128  RH  050%=      5-min Rain = 0
KCA1 121521Z 08005KT 24/13 A3004 RMK A01 T02370130  RH  051%=      5-min Rain = 0
KCA1 121522Z 08007KT 24/13 A3003 RMK A01 T02390129  RH  050%=      5-min Rain = 0
KCA1 121523Z 10005KT 24/13 A3003 RMK A01 T02400128  RH  050%=      5-min Rain = 0
KCA1 121524Z 12006KT 24/13 A3003 RMK A01 T02420128  RH  049%=      5-min Rain = 0
KCA1 121525Z 11005KT 24/13 A3003 RMK A01 T02430125  RH  048%=      5-min Rain = 0
KCA1 121526Z 11004KT 24/13 A3003 RMK A01 T02440126  RH  048%=      5-min Rain = 0
KCA1 121527Z 11005KT 25/13 A3003 RMK A01 T02450126  RH  047%=      5-min Rain = 0
KCA1 121528Z 10005KT 25/13 A3003 RMK A01 T02460125  RH  047%=      5-min Rain = 0
KCA1 121529Z 09005KT 25/12 A3003 RMK A01 T02460124  RH  046%=      5-min Rain = 0
KCA1 121530Z 09004KT 25/12 A3003 RMK A01 T02450123  RH  046%=      5-min Rain = 0
KCA1 121531Z 11006KT 24/12 A3003 RMK A01 T02440124  RH  047%=      5-min Rain = 0
KCA1 121532Z 13004KT 25/12 A3003 RMK A01 T02450123  RH  047%=      5-min Rain = 0
KCA1 121533Z 14004KT 25/12 A3003 RMK A01 T02450123  RH  046%=      5-min Rain = 0
KCA1 121534Z 13003KT 25/12 A3003 RMK A01 T02460122  RH  046%=      5-min Rain = 0
KCA1 121535Z 11004KT 25/12 A3003 RMK A01 T02480124  RH  046%=      5-min Rain = 0
KCA1 121536Z 11004KT 25/13 A3003 RMK A01 T02500125  RH  046%=      5-min Rain = 0
KCA1 121537Z 12005KT 25/12 A3003 RMK A01 T02500124  RH  045%=      5-min Rain = 0
KCA1 121538Z 11005KT 25/12 A3003 RMK A01 T02500123  RH  045%=      5-min Rain = 0
KCA1 121539Z 14007KT 25/12 A3003 RMK A01 T02500123  RH  045%=      5-min Rain = 0
KCA1 121540Z 14005KT 25/12 A3003 RMK A01 T02500122  RH  045%=      5-min Rain = 0
KCA1 121541Z 14005KT 25/12 A3003 RMK A01 T02510123  RH  045%=      5-min Rain = 0
KCA1 121542Z 14005KT 25/13 A3003 RMK A01 T02520125  RH  045%=      5-min Rain = 0
KCA1 121543Z 13004KT 25/13 A3003 RMK A01 T02520125  RH  045%=      5-min Rain = 0
KCA1 121544Z 13004KT 25/13 A3003 RMK A01 T02540127  RH  045%=      5-min Rain = 0
KCA1 121545Z 13006KT 26/13 A3003 RMK A01 T02570128  RH  045%=      5-min Rain = 0
KCA1 121546Z 12006KT 26/13 A3003 RMK A01 T02590126  RH  043%=      5-min Rain = 0
KCA1 121547Z 13005KT 26/12 A3003 RMK A01 T02600124  RH  043%=      5-min Rain = 0
KCA1 121548Z 14005KT 26/13 A3003 RMK A01 T02590126  RH  044%=      5-min Rain = 0
KCA1 121549Z 14005KT 26/12 A3003 RMK A01 T02600123  RH  043%=      5-min Rain = 0
KCA1 121550Z 14004KT 26/12 A3003 RMK A01 T02610123  RH  042%=      5-min Rain = 0
KCA1 121551Z 13005KT 26/12 A3003 RMK A01 T02620122  RH  042%=      5-min Rain = 0
KCA1 121552Z 13007KT 26/12 A3003 RMK A01 T02640118  RH  040%=      5-min Rain = 0
KCA1 121553Z 12005KT 26/12 A3003 RMK A01 T02630117  RH  040%=      5-min Rain = 0
KCA1 121554Z 12005KT 26/12 A3003 RMK A01 T02610120  RH  041%=      5-min Rain = 0
KCA1 121555Z 12004KT 26/12 A3003 RMK A01 T02620120  RH  041%=      5-min Rain = 0
KCA1 121556Z 11005KT 26/12 A3003 RMK A01 T02640121  RH  041%=      5-min Rain = 0
KCA1 121557Z 12008KT 26/12 A3003 RMK A01 T02640120  RH  041%=      5-min Rain = 0
KCA1 121558Z 12005KT 26/12 A3003 RMK A01 T02640121  RH  041%=      5-min Rain = 0
KCA1 121559Z 11005KT 26/12 A3003 RMK A01 T02620122  RH  042%=      5-min Rain = 0
KCA1 121600Z 13005KT 26/12 A3003 RMK A01 T02600122  RH  042%=      5-min Rain = 0
KCA1 121601Z 14006KT 26/12 A3003 RMK A01 T02600119  RH  041%=      5-min Rain = 0
KCA1 121602Z 14006KT 26/12 A3003 RMK A01 T02620119  RH  041%=      5-min Rain = 0
KCA1 121603Z 14006KT 26/12 A3003 RMK A01 T02630120  RH  041%=      5-min Rain = 0
KCA1 121604Z 13006KT 26/12 A3003 RMK A01 T02640119  RH  041%=      5-min Rain = 0
KCA1 121605Z 13007KT 26/12 A3003 RMK A01 T02640115  RH  039%=      5-min Rain = 0
KCA1 121606Z 13005KT 26/11 A3003 RMK A01 T02640114  RH  039%=      5-min Rain = 0
KCA1 121607Z 15004KT 26/11 A3003 RMK A01 T02630114  RH  040%=      5-min Rain = 0
KCA1 121608Z 11007KT 26/12 A3003 RMK A01 T02620118  RH  041%=      5-min Rain = 0
KCA1 121609Z 11004KT 26/12 A3003 RMK A01 T02630116  RH  040%=      5-min Rain = 0
KCA1 121610Z 12002KT 26/12 A3003 RMK A01 T02630115  RH  040%=      5-min Rain = 0
KCA1 121611Z 12003KT 26/12 A3003 RMK A01 T02620118  RH  041%=      5-min Rain = 0
KCA1 121612Z 11007KT 26/12 A3003 RMK A01 T02640120  RH  041%=      5-min Rain = 0
KCA1 121613Z 12004KT 27/12 A3003 RMK A01 T02650118  RH  040%=      5-min Rain = 0
KCA1 121614Z 12003KT 26/12 A3003 RMK A01 T02640120  RH  041%=      5-min Rain = 0
KCA1 121615Z 13006KT 27/12 A3003 RMK A01 T02650119  RH  040%=      5-min Rain = 0
KCA1 121616Z 11006KT 27/12 A3003 RMK A01 T02660117  RH  040%=      5-min Rain = 0
KCA1 121617Z 12004KT 27/12 A3003 RMK A01 T02660119  RH  040%=      5-min Rain = 0
KCA1 121618Z 14004KT 27/12 A3003 RMK A01 T02680119  RH  040%=      5-min Rain = 0
KCA1 121619Z 11006KT 27/12 A3003 RMK A01 T02690120  RH  040%=      5-min Rain = 0
KCA1 121620Z 11005KT 27/12 A3003 RMK A01 T02700119  RH  039%=      5-min Rain = 0
KCA1 121621Z 11003KT 27/12 A3003 RMK A01 T02700121  RH  040%=      5-min Rain = 0
KCA1 121622Z 15005KT 27/12 A3003 RMK A01 T02720121  RH  039%=      5-min Rain = 0
KCA1 121623Z 10006KT 27/12 A3003 RMK A01 T02740121  RH  039%=      5-min Rain = 0
KCA1 121624Z 10007KT 28/12 A3003 RMK A01 T02750120  RH  038%=      5-min Rain = 0
KCA1 121625Z 08005KT 27/12 A3003 RMK A01 T02730116  RH  038%=      5-min Rain = 0
KCA1 121626Z 12005KT 27/12 A3003 RMK A01 T02710117  RH  039%=      5-min Rain = 0
KCA1 121627Z 12006KT 27/12 A3003 RMK A01 T02700116  RH  038%=      5-min Rain = 0
KCA1 121628Z 13006KT 27/12 A3003 RMK A01 T02690117  RH  039%=      5-min Rain = 0
KCA1 121629Z 13005KT 27/12 A3003 RMK A01 T02690116  RH  039%=      5-min Rain = 0
KCA1 121630Z 15003KT 27/12 A3003 RMK A01 T02690117  RH  039%=      5-min Rain = 0
KCA1 121631Z 15003KT 27/12 A3003 RMK A01 T02700119  RH  039%=      5-min Rain = 0
KCA1 121632Z 11004KT 27/12 A3003 RMK A01 T02720119  RH  039%=      5-min Rain = 0
KCA1 121633Z 10004KT 27/12 A3003 RMK A01 T02730117  RH  038%=      5-min Rain = 0
KCA1 121634Z 10005KT 27/12 A3003 RMK A01 T02720118  RH  038%=      5-min Rain = 0
KCA1 121635Z 10006KT 27/12 A3003 RMK A01 T02710119  RH  039%=      5-min Rain = 0
KCA1 121636Z 10005KT 27/12 A3002 RMK A01 T02700116  RH  038%=      5-min Rain = 0
KCA1 121637Z 11004KT 27/12 A3002 RMK A01 T02690118  RH  039%=      5-min Rain = 0
KCA1 121638Z 12005KT 27/12 A3002 RMK A01 T02690120  RH  040%=      5-min Rain = 0
KCA1 121639Z 12005KT 27/12 A3002 RMK A01 T02700120  RH  039%=      5-min Rain = 0
KCA1 121640Z 09003KT 27/12 A3002 RMK A01 T02720121  RH  039%=      5-min Rain = 0
KCA1 121641Z 14001KT 27/12 A3002 RMK A01 T02740119  RH  038%=      5-min Rain = 0
KCA1 121642Z 12005KT 28/12 A3002 RMK A01 T02750122  RH  039%=      5-min Rain = 0
KCA1 121643Z 12006KT 28/12 A3002 RMK A01 T02760121  RH  038%=      5-min Rain = 0
KCA1 121644Z 10006KT 28/12 A3002 RMK A01 T02770120  RH  038%=      5-min Rain = 0
KCA1 121645Z 11006KT 27/12 A3002 RMK A01 T02740119  RH  038%=      5-min Rain = 0
KCA1 121646Z 11003KT 27/12 A3002 RMK A01 T02720120  RH  039%=      5-min Rain = 0
KCA1 121647Z 10007KT 27/12 A3002 RMK A01 T02720119  RH  039%=      5-min Rain = 0
KCA1 121648Z 09004KT 27/12 A3002 RMK A01 T02740119  RH  038%=      5-min Rain = 0
KCA1 121649Z 09004KT 28/12 A3002 RMK A01 T02750117  RH  037%=      5-min Rain = 0
KCA1 121650Z 11005G10KT 27/12 A3002 RMK A01 T02740119  RH  038%=      5-min Rain = 0
KCA1 121651Z 11006KT 27/12 A3002 RMK A01 T02740120  RH  038%=      5-min Rain = 0
KCA1 121652Z 12007KT 28/12 A3002 RMK A01 T02760122  RH  038%=      5-min Rain = 0
KCA1 121653Z 12007KT 28/12 A3002 RMK A01 T02770121  RH  038%=      5-min Rain = 0
KCA1 121654Z 13007KT 28/12 A3002 RMK A01 T02780122  RH  038%=      5-min Rain = 0
KCA1 121655Z 10006KT 28/12 A3002 RMK A01 T02790120  RH  037%=      5-min Rain = 0
KCA1 121656Z 09003KT 28/12 A3002 RMK A01 T02780121  RH  038%=      5-min Rain = 0
KCA1 121657Z 09005KT 28/12 A3002 RMK A01 T02770120  RH  038%=      5-min Rain = 0
KCA1 121658Z 07008KT 28/12 A3002 RMK A01 T02770121  RH  038%=      5-min Rain = 0
KCA1 121659Z 06006KT 28/12 A3002 RMK A01 T02760120  RH  038%=      5-min Rain = 0
KCA1 121700Z 09005KT 28/12 A3002 RMK A01 T02750123  RH  039%=      5-min Rain = 0
KCA1 121701Z 11007KT 28/12 A3002 RMK A01 T02780123  RH  038%=      5-min Rain = 0
KCA1 121702Z 11004KT 28/12 A3002 RMK A01 T02790124  RH  038%=      5-min Rain = 0
KCA1 121703Z 10005KT 28/12 A3002 RMK A01 T02800122  RH  038%=      5-min Rain = 0
KCA1 121704Z 10004KT 28/12 A3002 RMK A01 T02800122  RH  038%=      5-min Rain = 0
KCA1 121705Z 16002KT 28/12 A3002 RMK A01 T02800122  RH  038%=      5-min Rain = 0
KCA1 121706Z 14004KT 28/12 A3002 RMK A01 T02790123  RH  038%=      5-min Rain = 0
KCA1 121707Z 10006KT 28/12 A3002 RMK A01 T02810124  RH  038%=      5-min Rain = 0
KCA1 121708Z 09003KT 28/12 A3002 RMK A01 T02820122  RH  037%=      5-min Rain = 0
KCA1 121709Z 10005G10KT 28/12 A3002 RMK A01 T02810124  RH  038%=      5-min Rain = 0
KCA1 121710Z 12007KT 28/12 A3002 RMK A01 T02810123  RH  037%=      5-min Rain = 0
KCA1 121711Z 14007KT 28/12 A3002 RMK A01 T02830124  RH  037%=      5-min Rain = 0
KCA1 121712Z 12006KT 29/12 A3002 RMK A01 T02850124  RH  037%=      5-min Rain = 0
KCA1 121713Z 12006KT 29/12 A3001 RMK A01 T02860123  RH  037%=      5-min Rain = 0
KCA1 121714Z 11008KT 29/12 A3002 RMK A01 T02850124  RH  037%=      5-min Rain = 0
KCA1 121715Z 11008KT 29/13 A3002 RMK A01 T02850125  RH  037%=      5-min Rain = 0
KCA1 121716Z 11008KT 29/13 A3002 RMK A01 T02850125  RH  037%=      5-min Rain = 0
KCA1 121717Z 11006KT 28/13 A3001 RMK A01 T02830125  RH  038%=      5-min Rain = 0
KCA1 121718Z 07005KT 28/13 A3001 RMK A01 T02820125  RH  038%=      5-min Rain = 0
KCA1 121719Z 07003KT 28/12 A3001 RMK A01 T02820124  RH  038%=      5-min Rain = 0
KCA1 121720Z 08005KT 28/13 A3001 RMK A01 T02820127  RH  038%=      5-min Rain = 0
KCA1 121721Z 12004KT 28/13 A3001 RMK A01 T02840126  RH  038%=      5-min Rain = 0
KCA1 121722Z 14009KT 29/13 A3001 RMK A01 T02850128  RH  038%=      5-min Rain = 0
KCA1 121723Z 15008KT 29/13 A3001 RMK A01 T02870127  RH  037%=      5-min Rain = 0
KCA1 121724Z 13006KT 29/13 A3001 RMK A01 T02880128  RH  037%=      5-min Rain = 0
KCA1 121725Z 07006KT 29/13 A3001 RMK A01 T02890127  RH  037%=      5-min Rain = 0
KCA1 121726Z 07006KT 29/13 A3001 RMK A01 T02900127  RH  037%=      5-min Rain = 0
KCA1 121727Z 07006KT 29/13 A3001 RMK A01 T02890125  RH  036%=      5-min Rain = 0
KCA1 121728Z 08006KT 29/13 A3001 RMK A01 T02880126  RH  037%=      5-min Rain = 0
KCA1 121729Z 10005KT 29/13 A3001 RMK A01 T02880126  RH  037%=      5-min Rain = 0
KCA1 121730Z 10008KT 29/12 A3001 RMK A01 T02890124  RH  036%=      5-min Rain = 0
KCA1 121731Z 10005KT 29/12 A3001 RMK A01 T02870122  RH  036%=      5-min Rain = 0
KCA1 121732Z 08005KT 28/12 A3001 RMK A01 T02830122  RH  037%=      5-min Rain = 0
KCA1 121733Z 11005KT 28/12 A3001 RMK A01 T02820123  RH  037%=      5-min Rain = 0
KCA1 121734Z 13002KT 28/12 A3001 RMK A01 T02820121  RH  037%=      5-min Rain = 0
KCA1 121735Z 08004KT 28/12 A3001 RMK A01 T02820122  RH  037%=      5-min Rain = 0
KCA1 121736Z 07006KT 29/13 A3001 RMK A01 T02850125  RH  037%=      5-min Rain = 0
KCA1 121737Z 05005KT 29/12 A3001 RMK A01 T02870123  RH  036%=      5-min Rain = 0
KCA1 121738Z 09007KT 29/12 A3001 RMK A01 T02860124  RH  037%=      5-min Rain = 0
KCA1 121739Z 09007KT 29/12 A3001 RMK A01 T02860123  RH  037%=      5-min Rain = 0
KCA1 121740Z 10005KT 29/12 A30 RMK A01 T02850123  RH  037%=      5-min Rain = 0
KCA1 121741Z 07004KT 28/12 A30 RMK A01 T02840123  RH  037%=      5-min Rain = 0
KCA1 121742Z 12005KT 28/13 A30 RMK A01 T02840125  RH  037%=      5-min Rain = 0
KCA1 121743Z 13004KT 29/12 A30 RMK A01 T02860123  RH  037%=      5-min Rain = 0
KCA1 121744Z 10007KT 29/13 A30 RMK A01 T02860125  RH  037%=      5-min Rain = 0
KCA1 121745Z 11005KT 29/13 A30 RMK A01 T02910128  RH  037%=      5-min Rain = 0
KCA1 121746Z 11005KT 29/13 A30 RMK A01 T02940127  RH  036%=      5-min Rain = 0
KCA1 121747Z 10008KT 30/13 A30 RMK A01 T02950127  RH  035%=      5-min Rain = 0
KCA1 121748Z 09005KT 30/13 A30 RMK A01 T02950125  RH  035%=      5-min Rain = 0
KCA1 121749Z 06006KT 29/13 A30 RMK A01 T02930125  RH  035%=      5-min Rain = 0
KCA1 121750Z 09005KT 29/13 A30 RMK A01 T02920125  RH  036%=      5-min Rain = 0
KCA1 121751Z 10009KT 29/13 A30 RMK A01 T02930126  RH  036%=      5-min Rain = 0
KCA1 121752Z 10006KT 30/12 A30 RMK A01 T02950123  RH  035%=      5-min Rain = 0
KCA1 121753Z 10008KT 29/13 A30 RMK A01 T02930125  RH  035%=      5-min Rain = 0
KCA1 121754Z 10007KT 29/12 A30 RMK A01 T02920122  RH  035%=      5-min Rain = 0
KCA1 121755Z 11003KT 29/12 A30 RMK A01 T02900123  RH  036%=      5-min Rain = 0
KCA1 121756Z 07001KT 29/12 A30 RMK A01 T02900123  RH  036%=      5-min Rain = 0
KCA1 121757Z 18002KT 29/12 A30 RMK A01 T02900123  RH  036%=      5-min Rain = 0
KCA1 121758Z 21003KT 29/12 A30 RMK A01 T02900121  RH  035%=      5-min Rain = 0
KCA1 121759Z 11003KT 29/12 A30 RMK A01 T02890122  RH  036%=      5-min Rain = 0
KCA1 121800Z 08006KT 29/12 A30 RMK A01 T02890124  RH  036%=      5-min Rain = 0
KCA1 121801Z 08008KT 29/12 A30 RMK A01 T02910122  RH  035%=      5-min Rain = 0
KCA1 121802Z 08008KT 29/12 A30 RMK A01 T02920123  RH  035%=      5-min Rain = 0
KCA1 121803Z 09007KT 29/12 A30 RMK A01 T02940122  RH  035%=      5-min Rain = 0
KCA1 121804Z 07005KT 29/12 A30 RMK A01 T02940123  RH  035%=      5-min Rain = 0
KCA1 121805Z 05009KT 29/13 A30 RMK A01 T02940125  RH  035%=      5-min Rain = 0
KCA1 121806Z 04009KT 30/12 A30 RMK A01 T02960121  RH  034%=      5-min Rain = 0
KCA1 121807Z 02006KT 29/12 A30 RMK A01 T02940120  RH  034%=      5-min Rain = 0
KCA1 121808Z 03006KT 29/12 A30 RMK A01 T02930121  RH  035%=      5-min Rain = 0
KCA1 121809Z 03003KT 30/12 A2999 RMK A01 T02950121  RH  034%=      5-min Rain = 0
KCA1 121810Z 11003KT 30/12 A2999 RMK A01 T02950120  RH  034%=      5-min Rain = 0
KCA1 121811Z 11004KT 30/12 A2999 RMK A01 T02950120  RH  034%=      5-min Rain = 0
KCA1 121812Z 11009KT 29/12 A2999 RMK A01 T02940120  RH  034%=      5-min Rain = 0
KCA1 121813Z 11007KT 29/12 A2999 RMK A01 T02940118  RH  034%=      5-min Rain = 0
KCA1 121814Z 10005KT 29/12 A2999 RMK A01 T02920120  RH  034%=      5-min Rain = 0
KCA1 121815Z 08005KT 29/12 A2999 RMK A01 T02940121  RH  034%=      5-min Rain = 0
KCA1 121816Z 11006KT 30/12 A2999 RMK A01 T02970122  RH  034%=      5-min Rain = 0
KCA1 121817Z 14004KT 30/12 A2999 RMK A01 T02970121  RH  034%=      5-min Rain = 0
KCA1 121818Z 15005KT 30/12 A2999 RMK A01 T02970124  RH  034%=      5-min Rain = 0
KCA1 121819Z 10003KT 30/12 A2999 RMK A01 T02970124  RH  035%=      5-min Rain = 0
KCA1 121820Z 11003KT 30/12 A2999 RMK A01 T02960123  RH  034%=      5-min Rain = 0
KCA1 121821Z 17003KT 30/12 A2999 RMK A01 T02960124  RH  035%=      5-min Rain = 0
KCA1 121822Z 15003KT 30/12 A2999 RMK A01 T02970123  RH  034%=      5-min Rain = 0
KCA1 121823Z 14002KT 30/12 A2999 RMK A01 T02970122  RH  034%=      5-min Rain = 0
KCA1 121824Z 10006KT 30/12 A2999 RMK A01 T02970124  RH  035%=      5-min Rain = 0
KCA1 121825Z 06004KT 30/12 A2999 RMK A01 T02970123  RH  034%=      5-min Rain = 0
KCA1 121826Z 04006KT 30/12 A2999 RMK A01 T02980120  RH  033%=      5-min Rain = 0
KCA1 121827Z 02006KT 30/12 A2999 RMK A01 T02990115  RH  032%=      5-min Rain = 0
KCA1 121828Z 03006KT 30/12 A2998 RMK A01 T02990117  RH  033%=      5-min Rain = 0
KCA1 121829Z 02005KT 30/12 A2998 RMK A01 T02970119  RH  033%=      5-min Rain = 0
KCA1 121830Z 02007KT 30/12 A2998 RMK A01 T02960118  RH  033%=      5-min Rain = 0
KCA1 121831Z 03004KT 30/12 A2998 RMK A01 T02960118  RH  034%=      5-min Rain = 0
KCA1 121832Z 04006KT 29/12 A2998 RMK A01 T02940118  RH  034%=      5-min Rain = 0
KCA1 121833Z 04008KT 29/12 A2998 RMK A01 T02940121  RH  034%=      5-min Rain = 0
KCA1 121834Z 03006KT 30/12 A2998 RMK A01 T02970120  RH  034%=      5-min Rain = 0
KCA1 121835Z 02004KT 30/12 A2998 RMK A01 T02960120  RH  034%=      5-min Rain = 0
KCA1 121836Z 04005KT 30/12 A2998 RMK A01 T02960121  RH  034%=      5-min Rain = 0
KCA1 121837Z 06007KT 30/12 A2998 RMK A01 T02960121  RH  034%=      5-min Rain = 0
KCA1 121838Z 08008KT 30/12 A2998 RMK A01 T02980120  RH  034%=      5-min Rain = 0
KCA1 121839Z 10006KT 30/12 A2998 RMK A01 T02980120  RH  033%=      5-min Rain = 0
KCA1 121840Z 10003KT 30/12 A2998 RMK A01 T02980119  RH  033%=      5-min Rain = 0
KCA1 121841Z 05001KT 30/12 A2998 RMK A01 T02960118  RH  033%=      5-min Rain = 0
KCA1 121842Z 11004KT 30/12 A2998 RMK A01 T02950118  RH  034%=      5-min Rain = 0
KCA1 121843Z 11004KT 30/12 A2998 RMK A01 T02950118  RH  034%=      5-min Rain = 0
KCA1 121844Z 10002KT 30/12 A2998 RMK A01 T02960118  RH  033%=      5-min Rain = 0
KCA1 121845Z 07004KT 30/12 A2998 RMK A01 T02980119  RH  033%=      5-min Rain = 0
KCA1 121846Z 06005KT 30/11 A2998 RMK A01 T03000114  RH  032%=      5-min Rain = 0
KCA1 121847Z 08006KT 30/11 A2998 RMK A01 T03000114  RH  032%=      5-min Rain = 0
KCA1 121848Z 08008KT 30/11 A2998 RMK A01 T03000114  RH  032%=      5-min Rain = 0
KCA1 121849Z 08006KT 30/11 A2998 RMK A01 T03000111  RH  031%=      5-min Rain = 0
KCA1 121850Z 06003KT 30/11 A2998 RMK A01 T02990111  RH  031%=      5-min Rain = 0
KCA1 121851Z 11002KT 30/11 A2998 RMK A01 T02990112  RH  032%=      5-min Rain = 0
KCA1 121852Z 18002KT 30/11 A2998 RMK A01 T02990113  RH  032%=      5-min Rain = 0
KCA1 121853Z 17002KT 30/11 A2997 RMK A01 T02980113  RH  032%=      5-min Rain = 0
KCA1 121854Z 09001KT 30/11 A2997 RMK A01 T02980112  RH  032%=      5-min Rain = 0
KCA1 121855Z 03006KT 30/12 A2997 RMK A01 T02980115  RH  032%=      5-min Rain = 0
KCA1 121856Z 03008KT 30/12 A2997 RMK A01 T03010117  RH  032%=      5-min Rain = 0
KCA1 121857Z 04007KT 30/12 A2997 RMK A01 T03030117  RH  032%=      5-min Rain = 0
KCA1 121858Z 06005KT 30/12 A2997 RMK A01 T03040117  RH  032%=      5-min Rain = 0
KCA1 121859Z 05008KT 30/12 A2997 RMK A01 T03030118  RH  032%=      5-min Rain = 0
KCA1 121900Z 03006KT 30/12 A2997 RMK A01 T03030118  RH  032%=      5-min Rain = 0
KCA1 121901Z 02006KT 30/12 A2997 RMK A01 T03040117  RH  032%=      5-min Rain = 0
KCA1 121902Z 08006KT 30/12 A2997 RMK A01 T03040116  RH  031%=      5-min Rain = 0
KCA1 121903Z 09007KT 30/12 A2997 RMK A01 T03040117  RH  032%=      5-min Rain = 0
KCA1 121904Z 11005KT 30/12 A2997 RMK A01 T03040115  RH  031%=      5-min Rain = 0
KCA1 121905Z 13004KT 30/12 A2997 RMK A01 T03020115  RH  032%=      5-min Rain = 0
KCA1 121906Z 14002KT 30/12 A2997 RMK A01 T03010115  RH  032%=      5-min Rain = 0
KCA1 121907Z 05002KT 30/11 A2997 RMK A01 T03000113  RH  032%=      5-min Rain = 0
KCA1 121908Z 05004KT 30/11 A2997 RMK A01 T02990114  RH  032%=      5-min Rain = 0
KCA1 121909Z 07006KT 30/12 A2997 RMK A01 T03000116  RH  032%=      5-min Rain = 0
KCA1 121910Z 06007KT 30/11 A2997 RMK A01 T03030114  RH  031%=      5-min Rain = 0
KCA1 121911Z 04008KT 30/12 A2997 RMK A01 T03040115  RH  031%=      5-min Rain = 0
KCA1 121912Z 05008KT 30/12 A2997 RMK A01 T03040116  RH  031%=      5-min Rain = 0
KCA1 121913Z 03006KT 30/11 A2997 RMK A01 T03040114  RH  031%=      5-min Rain = 0
KCA1 121914Z 04003KT 30/11 A2997 RMK A01 T03010111  RH  031%=      5-min Rain = 0
KCA1 121915Z 13003KT 30/11 A2997 RMK A01 T02990111  RH  031%=      5-min Rain = 0
KCA1 121916Z 14002KT 30/11 A2997 RMK A01 T02990111  RH  031%=      5-min Rain = 0
KCA1 121917Z 14001KT 30/11 A2997 RMK A01 T03010110  RH  031%=      5-min Rain = 0
KCA1 121918Z 06003KT 30/11 A2997 RMK A01 T03020110  RH  031%=      5-min Rain = 0
KCA1 121919Z 04007KT 30/11 A2997 RMK A01 T03040114  RH  031%=      5-min Rain = 0
KCA1 121920Z 04008KT 31/11 A2996 RMK A01 T03050113  RH  031%=      5-min Rain = 0
KCA1 121921Z 03007KT 31/11 A2996 RMK A01 T03050112  RH  030%=      5-min Rain = 0
KCA1 121922Z 05006KT 30/11 A2996 RMK A01 T03030114  RH  031%=      5-min Rain = 0
KCA1 121923Z 06008KT 31/12 A2996 RMK A01 T03050116  RH  031%=      5-min Rain = 0
KCA1 121924Z 10007KT 31/12 A2996 RMK A01 T03080117  RH  031%=      5-min Rain = 0
KCA1 121925Z 10008KT 31/12 A2996 RMK A01 T03090115  RH  030%=      5-min Rain = 0
KCA1 121926Z 11008KT 31/11 A2996 RMK A01 T03060114  RH  031%=      5-min Rain = 0
KCA1 121927Z 13007KT 31/11 A2996 RMK A01 T03050114  RH  031%=      5-min Rain = 0
KCA1 121928Z 08006KT 31/12 A2996 RMK A01 T03060116  RH  031%=      5-min Rain = 0
KCA1 121929Z 08006KT 31/12 A2996 RMK A01 T03100116  RH  030%=      5-min Rain = 0
KCA1 121930Z 05007KT 31/12 A2996 RMK A01 T03120115  RH  030%=      5-min Rain = 0
KCA1 121931Z 07006KT 31/11 A2996 RMK A01 T03130114  RH  030%=      5-min Rain = 0
KCA1 121932Z 09007KT 31/11 A2996 RMK A01 T03110114  RH  030%=      5-min Rain = 0
KCA1 121933Z 10009KT 31/11 A2996 RMK A01 T03110113  RH  030%=      5-min Rain = 0
KCA1 121934Z 07012KT 31/11 A2996 RMK A01 T03110112  RH  029%=      5-min Rain = 0
KCA1 121935Z 08009KT 31/11 A2996 RMK A01 T03100110  RH  029%=      5-min Rain = 0
KCA1 121936Z 08007KT 31/11 A2996 RMK A01 T03070112  RH  030%=      5-min Rain = 0
KCA1 121937Z 09008KT 31/11 A2996 RMK A01 T03070110  RH  030%=      5-min Rain = 0
KCA1 121938Z 08006KT 31/11 A2996 RMK A01 T03050109  RH  030%=      5-min Rain = 0
KCA1 121939Z 08006KT 30/11 A2996 RMK A01 T03040109  RH  030%=      5-min Rain = 0
KCA1 121940Z 08004KT 30/11 A2996 RMK A01 T03030108  RH  030%=      5-min Rain = 0
KCA1 121941Z 05001KT 30/11 A2996 RMK A01 T03010108  RH  030%=      5-min Rain = 0
KCA1 121942Z 34002KT 30/11 A2995 RMK A01 T03010108  RH  030%=      5-min Rain = 0
KCA1 121943Z 35002KT 30/11 A2995 RMK A01 T03010108  RH  030%=      5-min Rain = 0
KCA1 121944Z 12005KT 30/11 A2995 RMK A01 T03020110  RH  030%=      5-min Rain = 0
KCA1 121945Z 15005KT 31/11 A2995 RMK A01 T03050107  RH  029%=      5-min Rain = 0
KCA1 121946Z 15005KT 31/11 A2995 RMK A01 T03050107  RH  029%=      5-min Rain = 0
KCA1 121947Z 13003KT 31/11 A2995 RMK A01 T03060106  RH  029%=      5-min Rain = 0
KCA1 121948Z 11005KT 31/11 A2995 RMK A01 T03070111  RH  030%=      5-min Rain = 0
KCA1 121949Z 11005KT 31/11 A2995 RMK A01 T03080109  RH  029%=      5-min Rain = 0
KCA1 121950Z 12004KT 31/11 A2995 RMK A01 T03090110  RH  029%=      5-min Rain = 0
KCA1 121951Z 08006KT 31/11 A2995 RMK A01 T03110108  RH  029%=      5-min Rain = 0
KCA1 121952Z 08004KT 31/11 A2995 RMK A01 T03110110  RH  029%=      5-min Rain = 0
KCA1 121953Z 03005KT 31/11 A2995 RMK A01 T03110109  RH  029%=      5-min Rain = 0
KCA1 121954Z 09003KT 31/11 A2995 RMK A01 T03090106  RH  028%=      5-min Rain = 0
KCA1 121955Z 12002KT 31/11 A2995 RMK A01 T03070109  RH  029%=      5-min Rain = 0
KCA1 121956Z 08004G10KT 31/11 A2995 RMK A01 T03090108  RH  029%=      5-min Rain = 0
KCA1 121957Z 09009KT 31/11 A2995 RMK A01 T03110108  RH  029%=      5-min Rain = 0
KCA1 121958Z 09009KT 31/11 A2995 RMK A01 T03140107  RH  028%=      5-min Rain = 0
KCA1 121959Z 08010KT 32/11 A2995 RMK A01 T03150107  RH  028%=      5-min Rain = 0
KCA1 122000Z 08009KT 32/11 A2995 RMK A01 T03150106  RH  028%=      5-min Rain = 0
KCA1 122001Z 06007KT 31/10 A2995 RMK A01 T03130104  RH  028%=      5-min Rain = 0
KCA1 122002Z 05006KT 31/11 A2995 RMK A01 T03100105  RH  028%=      5-min Rain = 0
KCA1 122003Z 04006KT 31/10 A2995 RMK A01 T03080103  RH  028%=      5-min Rain = 0
KCA1 122004Z 06004KT 31/11 A2994 RMK A01 T03070106  RH  029%=      5-min Rain = 0
KCA1 122005Z 06005KT 31/11 A2994 RMK A01 T03080106  RH  029%=      5-min Rain = 0
KCA1 122006Z 06005G10KT 31/11 A2994 RMK A01 T03080105  RH  029%=      5-min Rain = 0
KCA1 122007Z 08007KT 31/11 A2994 RMK A01 T03100108  RH  029%=      5-min Rain = 0
KCA1 122008Z 09005KT 31/11 A2994 RMK A01 T03130106  RH  028%=      5-min Rain = 0
KCA1 122009Z 07005KT 31/11 A2994 RMK A01 T03130108  RH  028%=      5-min Rain = 0
KCA1 122010Z 10008KT 32/11 A2994 RMK A01 T03150106  RH  028%=      5-min Rain = 0
KCA1 122011Z 10008KT 32/11 A2994 RMK A01 T03160107  RH  028%=      5-min Rain = 0
KCA1 122012Z 09007KT 32/11 A2994 RMK A01 T03160105  RH  027%=      5-min Rain = 0
KCA1 122013Z 12006KT 31/10 A2994 RMK A01 T03110104  RH  028%=      5-min Rain = 0
KCA1 122014Z 11005KT 31/10 A2994 RMK A01 T03100104  RH  028%=      5-min Rain = 0
KCA1 122015Z 05006KT 31/11 A2994 RMK A01 T03100105  RH  028%=      5-min Rain = 0
KCA1 122016Z 06004KT 31/10 A2994 RMK A01 T03100103  RH  028%=      5-min Rain = 0
KCA1 122017Z 07004KT 31/10 A2994 RMK A01 T03090101  RH  028%=      5-min Rain = 0
KCA1 122018Z 09006KT 31/10 A2994 RMK A01 T03080104  RH  028%=      5-min Rain = 0
KCA1 122019Z 11004G9KT 31/10 A2994 RMK A01 T03100101  RH  027%=      5-min Rain = 0
KCA1 122020Z 12001KT 31/10 A2994 RMK A01 T03110100  RH  027%=      5-min Rain = 0
KCA1 122021Z 09000KT 31/10 A2993 RMK A01 T03110100  RH  027%=      5-min Rain = 0
KCA1 122022Z 11002KT 31/10 A2993 RMK A01 T03110101  RH  027%=      5-min Rain = 0
KCA1 122023Z 07006G11KT 31/10 A2993 RMK A01 T03120103  RH  028%=      5-min Rain = 0
KCA1 122024Z 04008KT 32/11 A2993 RMK A01 T03160105  RH  027%=      5-min Rain = 0
KCA1 122025Z 06007KT 32/10 A2993 RMK A01 T03190104  RH  027%=      5-min Rain = 0
KCA1 122026Z 09010KT 32/10 A2993 RMK A01 T03180102  RH  026%=      5-min Rain = 0
KCA1 122027Z 09010KT 32/10 A2993 RMK A01 T03150100  RH  027%=      5-min Rain = 0
KCA1 122028Z 11009KT 31/10 A2993 RMK A01 T03130101  RH  027%=      5-min Rain = 0
KCA1 122029Z 11008KT 31/10 A2993 RMK A01 T03130101  RH  027%=      5-min Rain = 0
KCA1 122030Z 11007KT 31/10 A2993 RMK A01 T03130099  RH  027%=      5-min Rain = 0
KCA1 122031Z 09007KT 31/10 A2993 RMK A01 T03120100  RH  027%=      5-min Rain = 0
KCA1 122032Z 10004KT 31/10 A2993 RMK A01 T03100098  RH  027%=      5-min Rain = 0
KCA1 122033Z 11009KT 31/10 A2993 RMK A01 T03090100  RH  027%=      5-min Rain = 0
KCA1 122034Z 11007KT 31/10 A2993 RMK A01 T03100099  RH  027%=      5-min Rain = 0
KCA1 122035Z 12007KT 31/10 A2993 RMK A01 T03110100  RH  027%=      5-min Rain = 0
KCA1 122036Z 12005KT 31/10 A2993 RMK A01 T03110099  RH  027%=      5-min Rain = 0
KCA1 122037Z 07002KT 31/10 A2993 RMK A01 T03110099  RH  027%=      5-min Rain = 0
KCA1 122038Z 06001KT 31/10 A2993 RMK A01 T03100099  RH  027%=      5-min Rain = 0
KCA1 122039Z 11001KT 31/10 A2993 RMK A01 T03100098  RH  027%=      5-min Rain = 0
KCA1 122040Z 06002KT 31/10 A2993 RMK A01 T03090098  RH  027%=      5-min Rain = 0
KCA1 122041Z 07007KT 31/10 A2993 RMK A01 T03090101  RH  028%=      5-min Rain = 0
KCA1 122042Z 08005KT 31/10 A2993 RMK A01 T03110100  RH  027%=      5-min Rain = 0
KCA1 122043Z 12001KT 31/10 A2993 RMK A01 T03110100  RH  027%=      5-min Rain = 0
KCA1 122044Z 05003KT 31/10 A2993 RMK A01 T03110101  RH  027%=      5-min Rain = 0
KCA1 122045Z 03002KT 31/10 A2993 RMK A01 T03110098  RH  027%=      5-min Rain = 0
KCA1 122046Z 12001KT 31/10 A2992 RMK A01 T03090097  RH  027%=      5-min Rain = 0
KCA1 122047Z 10003KT 31/10 A2992 RMK A01 T03080099  RH  027%=      5-min Rain = 0
KCA1 122048Z 08005G11KT 31/10 A2993 RMK A01 T03090099  RH  027%=      5-min Rain = 0
KCA1 122049Z 08008KT 31/10 A2993 RMK A01 T03100101  RH  027%=      5-min Rain = 0
KCA1 122050Z 08010KT 32/10 A2992 RMK A01 T03150102  RH  027%=      5-min Rain = 0
KCA1 122051Z 08009KT 32/10 A2992 RMK A01 T03170100  RH  026%=      5-min Rain = 0
KCA1 122052Z 06007KT 32/10 A2992 RMK A01 T03170100  RH  026%=      5-min Rain = 0
KCA1 122053Z 06006KT 32/10 A2992 RMK A01 T03150100  RH  027%=      5-min Rain = 0
KCA1 122054Z 04004KT 31/10 A2992 RMK A01 T03140099  RH  027%=      5-min Rain = 0
KCA1 122055Z 05005KT 31/10 A2992 RMK A01 T03130101  RH  027%=      5-min Rain = 0
KCA1 122056Z 05008KT 32/10 A2992 RMK A01 T03150101  RH  027%=      5-min Rain = 0
KCA1 122057Z 06005KT 32/10 A2992 RMK A01 T03170100  RH  026%=      5-min Rain = 0
KCA1 122058Z 03006KT 32/10 A2992 RMK A01 T03160099  RH  026%=      5-min Rain = 0
KCA1 122059Z 02003KT 31/10 A2992 RMK A01 T03130097  RH  026%=      5-min Rain = 0
KCA1 122100Z 05002KT 31/10 A2992 RMK A01 T03110097  RH  027%=      5-min Rain = 0
KCA1 122101Z 06005KT 31/10 A2992 RMK A01 T03100100  RH  027%=      5-min Rain = 0
KCA1 122102Z 06006G12KT 31/10 A2992 RMK A01 T03140102  RH  027%=      5-min Rain = 0
KCA1 122103Z 08007G12KT 32/10 A2992 RMK A01 T03150101  RH  027%=      5-min Rain = 0
KCA1 122104Z 08002KT 31/10 A2992 RMK A01 T03140100  RH  027%=      5-min Rain = 0
KCA1 122105Z 04005KT 31/10 A2992 RMK A01 T03120101  RH  027%=      5-min Rain = 0
KCA1 122106Z 04008KT 31/10 A2992 RMK A01 T03130101  RH  027%=      5-min Rain = 0
KCA1 122107Z 05005KT 31/10 A2992 RMK A01 T03120099  RH  027%=      5-min Rain = 0
KCA1 122108Z 11004KT 31/10 A2992 RMK A01 T03100101  RH  027%=      5-min Rain = 0
KCA1 122109Z 13005KT 31/10 A2992 RMK A01 T03120101  RH  027%=      5-min Rain = 0
KCA1 122110Z 13003KT 31/10 A2991 RMK A01 T03140102  RH  027%=      5-min Rain = 0
KCA1 122111Z 12003KT 32/10 A2991 RMK A01 T03160104  RH  027%=      5-min Rain = 0
KCA1 122112Z 05005KT 32/10 A2991 RMK A01 T03180104  RH  027%=      5-min Rain = 0
KCA1 122113Z 08006KT 32/11 A2991 RMK A01 T03200105  RH  027%=      5-min Rain = 0
KCA1 122114Z 09006KT 32/11 A2991 RMK A01 T03210105  RH  027%=      5-min Rain = 0
KCA1 122115Z 10007KT 32/11 A2991 RMK A01 T03230106  RH  026%=      5-min Rain = 0
KCA1 122116Z 10007KT 32/10 A2991 RMK A01 T03220102  RH  026%=      5-min Rain = 0
KCA1 122117Z 10007KT 32/10 A2991 RMK A01 T03180102  RH  026%=      5-min Rain = 0
KCA1 122118Z 09007KT 32/10 A2991 RMK A01 T03160103  RH  027%=      5-min Rain = 0
KCA1 122119Z 06007KT 32/10 A2991 RMK A01 T03160101  RH  027%=      5-min Rain = 0
KCA1 122120Z 06005KT 32/10 A2991 RMK A01 T03150101  RH  027%=      5-min Rain = 0
KCA1 122121Z 04007KT 32/10 A2991 RMK A01 T03150101  RH  027%=      5-min Rain = 0
KCA1 122122Z 05006KT 31/10 A2991 RMK A01 T03140100  RH  027%=      5-min Rain = 0
KCA1 122123Z 05003KT 31/10 A2991 RMK A01 T03130101  RH  027%=      5-min Rain = 0
KCA1 122124Z 02002KT 31/10 A2991 RMK A01 T03130099  RH  027%=      5-min Rain = 0
KCA1 122125Z 35003KT 31/10 A2991 RMK A01 T03130101  RH  027%=      5-min Rain = 0
KCA1 122126Z 02003KT 31/10 A2991 RMK A01 T03140101  RH  027%=      5-min Rain = 0
KCA1 122127Z 05006KT 31/10 A2991 RMK A01 T03140101  RH  027%=      5-min Rain = 0
KCA1 122128Z 07008KT 31/10 A2991 RMK A01 T03140104  RH  027%=      5-min Rain = 0
KCA1 122129Z 06008KT 32/10 A2991 RMK A01 T03160104  RH  027%=      5-min Rain = 0
KCA1 122130Z 05006KT 32/10 A2991 RMK A01 T03160103  RH  027%=      5-min Rain = 0
KCA1 122131Z 08006KT 32/11 A2991 RMK A01 T03160105  RH  027%=      5-min Rain = 0
KCA1 122132Z 09007KT 32/11 A2991 RMK A01 T03170105  RH  027%=      5-min Rain = 0
KCA1 122133Z 08003KT 32/10 A2991 RMK A01 T03170102  RH  027%=      5-min Rain = 0
KCA1 122134Z 12002KT 31/10 A2991 RMK A01 T03140104  RH  027%=      5-min Rain = 0
KCA1 122135Z 13004KT 31/10 A2991 RMK A01 T03140102  RH  027%=      5-min Rain = 0
KCA1 122136Z 12002KT 31/10 A2991 RMK A01 T03140101  RH  027%=      5-min Rain = 0
KCA1 122137Z 08007KT 31/10 A2991 RMK A01 T03140104  RH  027%=      5-min Rain = 0
KCA1 122138Z 07006KT 31/10 A2991 RMK A01 T03140102  RH  027%=      5-min Rain = 0
KCA1 122139Z 06004KT 31/10 A2991 RMK A01 T03140103  RH  027%=      5-min Rain = 0
KCA1 122140Z 07003KT 31/10 A2991 RMK A01 T03130102  RH  027%=      5-min Rain = 0
KCA1 122141Z 11001KT 31/10 A2991 RMK A01 T03130101  RH  027%=      5-min Rain = 0
KCA1 122142Z 09002KT 31/10 A299 RMK A01 T03120102  RH  027%=      5-min Rain = 0
KCA1 122143Z 05006KT 31/10 A2991 RMK A01 T03130104  RH  028%=      5-min Rain = 0
KCA1 122144Z 03003KT 31/10 A2991 RMK A01 T03130102  RH  027%=      5-min Rain = 0
KCA1 122145Z 05005KT 31/10 A299 RMK A01 T03130103  RH  027%=      5-min Rain = 0
KCA1 122146Z 07004KT 31/10 A299 RMK A01 T03130104  RH  028%=      5-min Rain = 0
KCA1 122147Z 08005KT 31/10 A299 RMK A01 T03140104  RH  027%=      5-min Rain = 0
KCA1 122148Z 09005KT 31/11 A299 RMK A01 T03140105  RH  028%=      5-min Rain = 0
KCA1 122149Z 08006KT 31/10 A299 RMK A01 T03140104  RH  027%=      5-min Rain = 0
KCA1 122150Z 09006KT 31/10 A299 RMK A01 T03140104  RH  027%=      5-min Rain = 0
KCA1 122151Z 09005KT 31/10 A299 RMK A01 T03140104  RH  027%=      5-min Rain = 0
KCA1 122152Z 06005KT 31/10 A299 RMK A01 T03140104  RH  027%=      5-min Rain = 0
KCA1 122153Z 07003KT 31/10 A299 RMK A01 T03130103  RH  027%=      5-min Rain = 0
KCA1 122154Z 08003KT 31/10 A299 RMK A01 T03110103  RH  028%=      5-min Rain = 0
KCA1 122155Z 07003KT 31/11 A299 RMK A01 T03110105  RH  028%=      5-min Rain = 0
KCA1 122156Z 05005KT 31/11 A299 RMK A01 T03140107  RH  028%=      5-min Rain = 0
KCA1 122157Z 03003KT 32/10 A299 RMK A01 T03170102  RH  027%=      5-min Rain = 0
KCA1 122158Z 01000KT 32/10 A299 RMK A01 T03150102  RH  027%=      5-min Rain = 0
KCA1 122159Z 05003KT 31/10 A299 RMK A01 T03140103  RH  027%=      5-min Rain = 0
KCA1 122200Z 07007KT 32/11 A299 RMK A01 T03160105  RH  027%=      5-min Rain = 0
KCA1 122201Z 04007KT 32/11 A299 RMK A01 T03160105  RH  027%=      5-min Rain = 0
KCA1 122202Z 04005KT 32/11 A299 RMK A01 T03150105  RH  027%=      5-min Rain = 0
KCA1 122203Z 02003KT 31/10 A299 RMK A01 T03140104  RH  027%=      5-min Rain = 0
KCA1 122204Z 02005KT 31/11 A299 RMK A01 T03140106  RH  028%=      5-min Rain = 0
KCA1 122205Z 04005KT 32/11 A299 RMK A01 T03150106  RH  028%=      5-min Rain = 0
KCA1 122206Z 07006KT 32/10 A299 RMK A01 T03160104  RH  027%=      5-min Rain = 0
KCA1 122207Z 07004KT 31/10 A299 RMK A01 T03140103  RH  027%=      5-min Rain = 0
KCA1 122208Z 06003KT 31/10 A299 RMK A01 T03130103  RH  027%=      5-min Rain = 0
KCA1 122209Z 08007KT 31/10 A299 RMK A01 T03130104  RH  027%=      5-min Rain = 0
KCA1 122210Z 08005KT 31/10 A299 RMK A01 T03140103  RH  027%=      5-min Rain = 0
KCA1 122211Z 05006KT 32/11 A299 RMK A01 T03150106  RH  028%=      5-min Rain = 0
KCA1 122212Z 06006KT 32/10 A299 RMK A01 T03170104  RH  027%=      5-min Rain = 0
KCA1 122213Z 08003KT 32/10 A299 RMK A01 T03160102  RH  027%=      5-min Rain = 0
KCA1 122214Z 07003KT 31/11 A299 RMK A01 T03130105  RH  028%=      5-min Rain = 0
KCA1 122215Z 06005KT 31/10 A299 RMK A01 T03130104  RH  028%=      5-min Rain = 0
KCA1 122216Z 06006KT 31/10 A299 RMK A01 T03130104  RH  027%=      5-min Rain = 0
KCA1 122217Z 05005KT 31/10 A299 RMK A01 T03120104  RH  028%=      5-min Rain = 0
KCA1 122218Z 04004KT 31/10 A299 RMK A01 T03120104  RH  028%=      5-min Rain = 0
KCA1 122219Z 06008KT 31/11 A299 RMK A01 T03130105  RH  028%=      5-min Rain = 0
KCA1 122220Z 07007KT 31/11 A299 RMK A01 T03140106  RH  028%=      5-min Rain = 0
KCA1 122221Z 04006KT 31/11 A299 RMK A01 T03140105  RH  028%=      5-min Rain = 0
KCA1 122222Z 05006KT 31/10 A299 RMK A01 T03130103  RH  027%=      5-min Rain = 0
KCA1 122223Z 08006KT 31/11 A299 RMK A01 T03110105  RH  028%=      5-min Rain = 0
KCA1 122224Z 07006KT 31/11 A299 RMK A01 T03120105  RH  028%=      5-min Rain = 0
KCA1 122225Z 05004KT 31/10 A299 RMK A01 T03120103  RH  027%=      5-min Rain = 0
KCA1 122226Z 03002KT 31/10 A299 RMK A01 T03100101  RH  028%=      5-min Rain = 0
KCA1 122227Z 11003KT 31/10 A299 RMK A01 T03100104  RH  028%=      5-min Rain = 0
KCA1 122228Z 09005KT 31/11 A299 RMK A01 T03110105  RH  028%=      5-min Rain = 0
KCA1 122229Z 06006KT 31/11 A299 RMK A01 T03130106  RH  028%=      5-min Rain = 0
KCA1 122230Z 03005KT 31/11 A299 RMK A01 T03140106  RH  028%=      5-min Rain = 0
KCA1 122231Z 04004KT 32/10 A299 RMK A01 T03150104  RH  027%=      5-min Rain = 0
KCA1 122232Z 05003KT 31/10 A299 RMK A01 T03120103  RH  028%=      5-min Rain = 0
KCA1 122233Z 04002KT 31/10 A299 RMK A01 T03110103  RH  028%=      5-min Rain = 0
KCA1 122234Z 07002KT 31/10 A299 RMK A01 T03110104  RH  028%=      5-min Rain = 0
KCA1 122235Z 08004KT 31/10 A299 RMK A01 T03110104  RH  028%=      5-min Rain = 0
KCA1 122236Z 08006KT 31/10 A299 RMK A01 T03110104  RH  028%=      5-min Rain = 0
KCA1 122237Z 08006KT 31/11 A299 RMK A01 T03110109  RH  029%=      5-min Rain = 0
KCA1 122238Z 08005KT 31/11 A299 RMK A01 T03120107  RH  028%=      5-min Rain = 0
KCA1 122239Z 07003KT 31/11 A299 RMK A01 T03120106  RH  028%=      5-min Rain = 0
KCA1 122240Z 09001KT 31/11 A299 RMK A01 T03100105  RH  028%=      5-min Rain = 0
KCA1 122241Z 07002KT 31/11 A2989 RMK A01 T03090106  RH  029%=      5-min Rain = 0
KCA1 122242Z 05005KT 31/11 A2989 RMK A01 T03090109  RH  029%=      5-min Rain = 0
KCA1 122243Z 05004KT 31/11 A2989 RMK A01 T03110108  RH  029%=      5-min Rain = 0
KCA1 122244Z 05005KT 31/11 A2989 RMK A01 T03110108  RH  029%=      5-min Rain = 0
KCA1 122245Z 07006KT 31/11 A2989 RMK A01 T03110108  RH  029%=      5-min Rain = 0
KCA1 122246Z 06004KT 31/11 A2989 RMK A01 T03100107  RH  029%=      5-min Rain = 0
KCA1 122247Z 05003KT 31/11 A2989 RMK A01 T03090108  RH  029%=      5-min Rain = 0
KCA1 122248Z 04002KT 31/11 A2989 RMK A01 T03090107  RH  029%=      5-min Rain = 0
KCA1 122249Z 07003KT 31/11 A2989 RMK A01 T03090109  RH  029%=      5-min Rain = 0
KCA1 122250Z 09005KT 31/11 A2989 RMK A01 T03100111  RH  029%=      5-min Rain = 0
KCA1 122251Z 11004KT 31/11 A2989 RMK A01 T03120110  RH  029%=      5-min Rain = 0
KCA1 122252Z 07002KT 31/11 A2989 RMK A01 T03120111  RH  029%=      5-min Rain = 0
KCA1 122253Z 07002KT 31/11 A2989 RMK A01 T03120110  RH  029%=      5-min Rain = 0
KCA1 122254Z 04002KT 31/11 A2989 RMK A01 T03120109  RH  029%=      5-min Rain = 0
KCA1 122255Z 01003KT 31/11 A2989 RMK A01 T03120110  RH  029%=      5-min Rain = 0
KCA1 122256Z 02003KT 31/11 A2989 RMK A01 T03130108  RH  028%=      5-min Rain = 0
KCA1 122257Z 03004KT 31/11 A2989 RMK A01 T03120110  RH  029%=      5-min Rain = 0
KCA1 122258Z 06005KT 31/11 A2989 RMK A01 T03120112  RH  029%=      5-min Rain = 0
KCA1 122259Z 08004KT 31/11 A2989 RMK A01 T03120111  RH  029%=      5-min Rain = 0
KCA1 122300Z 07004KT 31/11 A2989 RMK A01 T03120112  RH  029%=      5-min Rain = 0
KCA1 122301Z 08005KT 31/11 A2989 RMK A01 T03110111  RH  029%=      5-min Rain = 0
KCA1 122302Z 09005KT 31/11 A2989 RMK A01 T03100111  RH  029%=      5-min Rain = 0
KCA1 122303Z 10004KT 31/11 A2989 RMK A01 T03100112  RH  030%=      5-min Rain = 0
KCA1 122304Z 09005KT 31/11 A2989 RMK A01 T03090111  RH  029%=      5-min Rain = 0
KCA1 122305Z 09003KT 31/11 A2989 RMK A01 T03080111  RH  030%=      5-min Rain = 0
KCA1 122306Z 10003KT 31/11 A2989 RMK A01 T03080110  RH  030%=      5-min Rain = 0
KCA1 122307Z 11006KT 31/11 A2989 RMK A01 T03080112  RH  030%=      5-min Rain = 0
KCA1 122308Z 11005KT 31/11 A2989 RMK A01 T03090110  RH  029%=      5-min Rain = 0
KCA1 122309Z 11006KT 31/11 A2989 RMK A01 T03090109  RH  029%=      5-min Rain = 0
KCA1 122310Z 12006KT 31/11 A2989 RMK A01 T03090110  RH  029%=      5-min Rain = 0
KCA1 122311Z 13006KT 31/11 A2989 RMK A01 T03090110  RH  029%=      5-min Rain = 0
KCA1 122312Z 13006KT 31/11 A2989 RMK A01 T03090110  RH  029%=      5-min Rain = 0
KCA1 122313Z 13006KT 31/11 A2989 RMK A01 T03090110  RH  029%=      5-min Rain = 0
KCA1 122314Z 13006KT 31/11 A2989 RMK A01 T03090109  RH  029%=      5-min Rain = 0
KCA1 122315Z 14005KT 31/11 A2989 RMK A01 T03080109  RH  029%=      5-min Rain = 0
KCA1 122316Z 15004KT 31/11 A2989 RMK A01 T03080111  RH  030%=      5-min Rain = 0
KCA1 122317Z 14002KT 31/11 A2989 RMK A01 T03080110  RH  029%=      5-min Rain = 0
KCA1 122318Z 12002KT 31/11 A2989 RMK A01 T03080111  RH  030%=      5-min Rain = 0
KCA1 122319Z 08005KT 31/11 A2989 RMK A01 T03090113  RH  030%=      5-min Rain = 0
KCA1 122320Z 08004KT 31/11 A2989 RMK A01 T03100113  RH  030%=      5-min Rain = 0
KCA1 122321Z 08005KT 31/11 A2989 RMK A01 T03090112  RH  030%=      5-min Rain = 0
KCA1 122322Z 09004KT 31/11 A2989 RMK A01 T03090111  RH  030%=      5-min Rain = 0
KCA1 122323Z 09003KT 31/11 A2989 RMK A01 T03080113  RH  030%=      5-min Rain = 0
KCA1 122324Z 09004KT 31/11 A2989 RMK A01 T03080110  RH  030%=      5-min Rain = 0
KCA1 122325Z 09004KT 31/11 A2989 RMK A01 T03080111  RH  030%=      5-min Rain = 0
KCA1 122326Z 07004KT 31/11 A2989 RMK A01 T03070112  RH  030%=      5-min Rain = 0
KCA1 122327Z 07003KT 31/11 A2989 RMK A01 T03070111  RH  030%=      5-min Rain = 0
KCA1 122328Z 07002KT 31/11 A2989 RMK A01 T03060110  RH  030%=      5-min Rain = 0
KCA1 122329Z 08003KT 31/11 A2989 RMK A01 T03060112  RH  030%=      5-min Rain = 0
KCA1 122330Z 08002KT 31/11 A2989 RMK A01 T03060108  RH  029%=      5-min Rain = 0
KCA1 122331Z 08001KT 31/11 A2989 RMK A01 T03060110  RH  030%=      5-min Rain = 0
KCA1 122332Z 08002KT 31/11 A2989 RMK A01 T03050110  RH  030%=      5-min Rain = 0
KCA1 122333Z 07003KT 31/11 A2989 RMK A01 T03060111  RH  030%=      5-min Rain = 0
KCA1 122334Z 08002KT 31/11 A2989 RMK A01 T03060111  RH  030%=      5-min Rain = 0
KCA1 122335Z 09003KT 31/11 A2989 RMK A01 T03060111  RH  030%=      5-min Rain = 0
KCA1 122336Z 12003KT 31/11 A2989 RMK A01 T03050113  RH  031%=      5-min Rain = 0
KCA1 122337Z 11004KT 31/11 A2989 RMK A01 T03050111  RH  030%=      5-min Rain = 0
KCA1 122338Z 09007KT 31/11 A2989 RMK A01 T03060113  RH  031%=      5-min Rain = 0
KCA1 122339Z 11006KT 31/11 A2989 RMK A01 T03060112  RH  030%=      5-min Rain = 0
KCA1 122340Z 10005KT 31/11 A2989 RMK A01 T03050110  RH  030%=      5-min Rain = 0
KCA1 122341Z 10005KT 31/11 A2989 RMK A01 T03050112  RH  031%=      5-min Rain = 0
KCA1 122342Z 10006KT 30/11 A2989 RMK A01 T03040112  RH  031%=      5-min Rain = 0
KCA1 122343Z 10005KT 30/11 A2989 RMK A01 T03040113  RH  031%=      5-min Rain = 0
KCA1 122344Z 10005KT 30/11 A2989 RMK A01 T03040113  RH  031%=      5-min Rain = 0
KCA1 122345Z 11006KT 30/11 A2989 RMK A01 T03040111  RH  030%=      5-min Rain = 0
KCA1 122346Z 11005KT 30/11 A2989 RMK A01 T03040110  RH  030%=      5-min Rain = 0
KCA1 122347Z 11004KT 30/11 A2989 RMK A01 T03030112  RH  031%=      5-min Rain = 0
KCA1 122348Z 11005KT 30/11 A2989 RMK A01 T03030113  RH  031%=      5-min Rain = 0
KCA1 122349Z 11004KT 30/11 A2989 RMK A01 T03030111  RH  031%=      5-min Rain = 0
KCA1 122350Z 12003KT 30/11 A2988 RMK A01 T03030111  RH  031%=      5-min Rain = 0
KCA1 122351Z 12003KT 30/11 A2988 RMK A01 T03030112  RH  031%=      5-min Rain = 0
KCA1 122352Z 12004KT 30/11 A2988 RMK A01 T03020112  RH  031%=      5-min Rain = 0
KCA1 122353Z 11004KT 30/11 A2988 RMK A01 T03020113  RH  031%=      5-min Rain = 0
KCA1 122354Z 12004KT 30/11 A2988 RMK A01 T03030113  RH  031%=      5-min Rain = 0
KCA1 122355Z 13003KT 30/11 A2988 RMK A01 T03030114  RH  031%=      5-min Rain = 0
KCA1 122356Z 13003KT 30/12 A2988 RMK A01 T03020115  RH  032%=      5-min Rain = 0
KCA1 122357Z 12004KT 30/11 A2988 RMK A01 T03020113  RH  031%=      5-min Rain = 0
KCA1 122358Z 10003KT 30/11 A2988 RMK A01 T03020112  RH  031%=      5-min Rain = 0
KCA1 122359Z 10003KT 30/11 A2988 RMK A01 T03010113  RH  031%=      5-min Rain = 0
KCA1 130000Z 10004KT 30/11 A2988 RMK A01 T03010113  RH  031%=      5-min Rain = 0
KCA1 130001Z 11003KT 30/11 A2988 RMK A01 T03010114  RH  032%=      5-min Rain = 0
KCA1 130002Z 12003KT 30/11 A2988 RMK A01 T03000114  RH  032%=      5-min Rain = 0
KCA1 130003Z 12005KT 30/11 A2988 RMK A01 T03000113  RH  032%=      5-min Rain = 0
KCA1 130004Z 13003KT 30/11 A2988 RMK A01 T03000114  RH  032%=      5-min Rain = 0
KCA1 130005Z 15004KT 30/12 A2988 RMK A01 T02990115  RH  032%=      5-min Rain = 0
KCA1 130006Z 14004KT 30/12 A2988 RMK A01 T02990117  RH  032%=      5-min Rain = 0
KCA1 130007Z 13004KT 30/12 A2988 RMK A01 T02990117  RH  033%=      5-min Rain = 0
KCA1 130008Z 13004KT 30/12 A2988 RMK A01 T02980118  RH  033%=      5-min Rain = 0
KCA1 130009Z 13003KT 30/12 A2988 RMK A01 T02970117  RH  033%=      5-min Rain = 0
KCA1 130010Z 13004KT 30/12 A2988 RMK A01 T02970117  RH  033%=      5-min Rain = 0
KCA1 130011Z 12003KT 30/12 A2988 RMK A01 T02960117  RH  033%=      5-min Rain = 0
KCA1 130012Z 12003KT 30/12 A2988 RMK A01 T02950116  RH  033%=      5-min Rain = 0
KCA1 130013Z 13003KT 30/12 A2988 RMK A01 T02950117  RH  033%=      5-min Rain = 0
KCA1 130014Z 13004KT 29/12 A2988 RMK A01 T02940117  RH  033%=      5-min Rain = 0
KCA1 130015Z 12003KT 29/12 A2988 RMK A01 T02940117  RH  034%=      5-min Rain = 0
KCA1 130016Z 12003KT 29/12 A2988 RMK A01 T02930118  RH  034%=      5-min Rain = 0
KCA1 130017Z 12003KT 29/12 A2988 RMK A01 T02930118  RH  034%=      5-min Rain = 0
KCA1 130018Z 12003KT 29/12 A2988 RMK A01 T02920119  RH  034%=      5-min Rain = 0
KCA1 130019Z 11003KT 29/12 A2988 RMK A01 T02920120  RH  035%=      5-min Rain = 0
KCA1 130020Z 10003KT 29/12 A2988 RMK A01 T02910121  RH  035%=      5-min Rain = 0
KCA1 130021Z 10003KT 29/12 A2988 RMK A01 T02900121  RH  035%=      5-min Rain = 0
KCA1 130022Z 09005KT 29/12 A2988 RMK A01 T02890120  RH  035%=      5-min Rain = 0
KCA1 130023Z 09005KT 29/12 A2988 RMK A01 T02880119  RH  035%=      5-min Rain = 0
KCA1 130024Z 09005KT 29/12 A2988 RMK A01 T02870119  RH  035%=      5-min Rain = 0
KCA1 130025Z 10005KT 29/12 A2988 RMK A01 T02850120  RH  036%=      5-min Rain = 0
KCA1 130026Z 09005KT 28/12 A2988 RMK A01 T02840119  RH  036%=      5-min Rain = 0
KCA1 130027Z 09006KT 28/12 A2988 RMK A01 T02830120  RH  036%=      5-min Rain = 0
KCA1 130028Z 09006KT 28/12 A2988 RMK A01 T02820120  RH  037%=      5-min Rain = 0
KCA1 130029Z 09006KT 28/12 A2988 RMK A01 T02810121  RH  037%=      5-min Rain = 0
KCA1 130030Z 09006KT 28/12 A2988 RMK A01 T02810122  RH  037%=      5-min Rain = 0
KCA1 130031Z 09006KT 28/12 A2988 RMK A01 T02800122  RH  037%=      5-min Rain = 0
KCA1 130032Z 09006KT 28/12 A2988 RMK A01 T02790122  RH  038%=      5-min Rain = 0
KCA1 130033Z 09006KT 28/12 A2988 RMK A01 T02780122  RH  038%=      5-min Rain = 0
KCA1 130034Z 10006KT 28/12 A2988 RMK A01 T02770123  RH  038%=      5-min Rain = 0
KCA1 130035Z 09005KT 28/12 A2988 RMK A01 T02760123  RH  039%=      5-min Rain = 0
KCA1 130036Z 09005KT 28/12 A2988 RMK A01 T02750123  RH  039%=      5-min Rain = 0
KCA1 130037Z 09005KT 27/12 A2988 RMK A01 T02740124  RH  039%=      5-min Rain = 0
KCA1 130038Z 09006KT 27/12 A2988 RMK A01 T02730124  RH  040%=      5-min Rain = 0
KCA1 130039Z 09006KT 27/12 A2988 RMK A01 T02710124  RH  040%=      5-min Rain = 0
KCA1 130040Z 09006KT 27/12 A2988 RMK A01 T02700124  RH  040%=      5-min Rain = 0
KCA1 130041Z 09007KT 27/12 A2988 RMK A01 T02690124  RH  041%=      5-min Rain = 0
KCA1 130042Z 09008KT 27/12 A2988 RMK A01 T02680124  RH  041%=      5-min Rain = 0
KCA1 130043Z 09007KT 27/12 A2988 RMK A01 T02670123  RH  041%=      5-min Rain = 0
KCA1 130044Z 08006KT 27/12 A2988 RMK A01 T02680122  RH  040%=      5-min Rain = 0
KCA1 130045Z 08006KT 27/12 A2988 RMK A01 T02680123  RH  041%=      5-min Rain = 0
KCA1 130046Z 08006KT 27/12 A2988 RMK A01 T02660123  RH  041%=      5-min Rain = 0
KCA1 130047Z 08006KT 26/12 A2988 RMK A01 T02640123  RH  041%=      5-min Rain = 0
KCA1 130048Z 08006KT 26/12 A2988 RMK A01 T02630123  RH  042%=      5-min Rain = 0
KCA1 130049Z 08006KT 26/12 A2988 RMK A01 T02620123  RH  042%=      5-min Rain = 0
KCA1 130050Z 08006KT 26/12 A2988 RMK A01 T02600122  RH  042%=      5-min Rain = 0
KCA1 130051Z 08006KT 26/12 A2988 RMK A01 T02590122  RH  042%=      5-min Rain = 0
KCA1 130052Z 08006KT 26/12 A2988 RMK A01 T02580122  RH  043%=      5-min Rain = 0
KCA1 130053Z 08007KT 26/12 A2988 RMK A01 T02570122  RH  043%=      5-min Rain = 0
KCA1 130054Z 08007KT 26/12 A2988 RMK A01 T02560122  RH  043%=      5-min Rain = 0
KCA1 130055Z 08007KT 26/12 A2988 RMK A01 T02550121  RH  043%=      5-min Rain = 0
KCA1 130056Z 08007KT 25/12 A2988 RMK A01 T02540120  RH  043%=      5-min Rain = 0
KCA1 130057Z 08007KT 25/12 A2988 RMK A01 T02540120  RH  043%=      5-min Rain = 0
KCA1 130058Z 08007KT 25/12 A2988 RMK A01 T02540120  RH  043%=      5-min Rain = 0
KCA1 130059Z 08007KT 25/12 A2988 RMK A01 T02530119  RH  043%=      5-min Rain = 0
KCA1 130100Z 07007KT 25/12 A2988 RMK A01 T02520119  RH  043%=      5-min Rain = 0
KCA1 130101Z 08007KT 25/12 A2988 RMK A01 T02510118  RH  043%=      5-min Rain = 0
KCA1 130102Z 07007KT 25/12 A2988 RMK A01 T02500117  RH  043%=      5-min Rain = 0
KCA1 130103Z 07007KT 25/12 A2988 RMK A01 T02490117  RH  044%=      5-min Rain = 0
KCA1 130104Z 07008KT 25/12 A2988 RMK A01 T02480117  RH  044%=      5-min Rain = 0
KCA1 130105Z 07008KT 25/12 A2988 RMK A01 T02480117  RH  044%=      5-min Rain = 0
KCA1 130106Z 07008KT 25/12 A2988 RMK A01 T02470117  RH  044%=      5-min Rain = 0
KCA1 130107Z 07008KT 25/12 A2988 RMK A01 T02460117  RH  044%=      5-min Rain = 0
KCA1 130108Z 07008KT 25/12 A2988 RMK A01 T02450118  RH  045%=      5-min Rain = 0
KCA1 130109Z 07008KT 24/12 A2988 RMK A01 T02440118  RH  045%=      5-min Rain = 0
KCA1 130110Z 07008KT 24/12 A2988 RMK A01 T02440118  RH  045%=      5-min Rain = 0
KCA1 130111Z 08009KT 24/12 A2988 RMK A01 T02430118  RH  045%=      5-min Rain = 0
KCA1 130112Z 08008KT 24/12 A2988 RMK A01 T02430118  RH  045%=      5-min Rain = 0
KCA1 130113Z 07009KT 24/12 A2988 RMK A01 T02430118  RH  045%=      5-min Rain = 0
KCA1 130114Z 07008KT 24/12 A2988 RMK A01 T02430118  RH  045%=      5-min Rain = 0
KCA1 130115Z 07008KT 24/12 A2988 RMK A01 T02430117  RH  045%=      5-min Rain = 0
KCA1 130116Z 07008KT 24/12 A2988 RMK A01 T02430117  RH  045%=      5-min Rain = 0
KCA1 130117Z 07008KT 24/12 A2988 RMK A01 T02430117  RH  045%=      5-min Rain = 0
KCA1 130118Z 07008KT 24/12 A2988 RMK A01 T02430117  RH  045%=      5-min Rain = 0
KCA1 130119Z 08008KT 24/12 A2988 RMK A01 T02420116  RH  045%=      5-min Rain = 0
KCA1 130120Z 08008KT 24/12 A2988 RMK A01 T02430116  RH  045%=      5-min Rain = 0
KCA1 130121Z 08009KT 24/12 A2988 RMK A01 T02420116  RH  045%=      5-min Rain = 0
KCA1 130122Z 08008KT 24/12 A2988 RMK A01 T02420115  RH  045%=      5-min Rain = 0
KCA1 130123Z 07008KT 24/12 A2988 RMK A01 T02420115  RH  045%=      5-min Rain = 0
KCA1 130124Z 07008KT 24/12 A2988 RMK A01 T02420115  RH  045%=      5-min Rain = 0
KCA1 130125Z 07008KT 24/12 A2988 RMK A01 T02410115  RH  045%=      5-min Rain = 0
KCA1 130126Z 07008KT 24/12 A2988 RMK A01 T02400115  RH  045%=      5-min Rain = 0
KCA1 130127Z 07008KT 24/12 A2989 RMK A01 T02390115  RH  046%=      5-min Rain = 0
KCA1 130128Z 08009KT 24/12 A2989 RMK A01 T02380115  RH  046%=      5-min Rain = 0
KCA1 130129Z 08008KT 24/12 A2989 RMK A01 T02380115  RH  046%=      5-min Rain = 0
KCA1 130130Z 08009KT 24/12 A2989 RMK A01 T02370115  RH  046%=      5-min Rain = 0
KCA1 130131Z 08009KT 24/12 A2989 RMK A01 T02360115  RH  046%=      5-min Rain = 0
KCA1 130132Z 08009KT 24/12 A2989 RMK A01 T02360115  RH  046%=      5-min Rain = 0
KCA1 130133Z 08009KT 24/12 A2989 RMK A01 T02360115  RH  047%=      5-min Rain = 0
KCA1 130134Z 08009KT 24/11 A2989 RMK A01 T02350114  RH  047%=      5-min Rain = 0
KCA1 130135Z 08009KT 24/11 A2989 RMK A01 T02350114  RH  047%=      5-min Rain = 0
KCA1 130136Z 08009KT 24/11 A2989 RMK A01 T02350114  RH  047%=      5-min Rain = 0
KCA1 130137Z 08009KT 23/11 A2989 RMK A01 T02340113  RH  047%=      5-min Rain = 0
KCA1 130138Z 08008KT 23/11 A2989 RMK A01 T02340113  RH  047%=      5-min Rain = 0
KCA1 130139Z 08009KT 23/11 A2989 RMK A01 T02340113  RH  047%=      5-min Rain = 0
KCA1 130140Z 08008KT 23/11 A2989 RMK A01 T02340113  RH  047%=      5-min Rain = 0
KCA1 130141Z 08009KT 23/11 A2989 RMK A01 T02330113  RH  047%=      5-min Rain = 0
KCA1 130142Z 08009KT 23/11 A2989 RMK A01 T02320113  RH  047%=      5-min Rain = 0
KCA1 130143Z 08009KT 23/11 A2989 RMK A01 T02320113  RH  047%=      5-min Rain = 0
KCA1 130144Z 07009KT 23/11 A2989 RMK A01 T02310113  RH  047%=      5-min Rain = 0
KCA1 130145Z 08009KT 23/11 A2989 RMK A01 T02310113  RH  047%=      5-min Rain = 0
KCA1 130146Z 08009KT 23/11 A2989 RMK A01 T02310112  RH  047%=      5-min Rain = 0
KCA1 130147Z 08009KT 23/11 A2989 RMK A01 T02310112  RH  047%=      5-min Rain = 0
KCA1 130148Z 08009KT 23/11 A2989 RMK A01 T02310112  RH  047%=      5-min Rain = 0
KCA1 130149Z 08009KT 23/11 A2989 RMK A01 T02310112  RH  047%=      5-min Rain = 0
KCA1 130150Z 08009KT 23/11 A2989 RMK A01 T02310112  RH  047%=      5-min Rain = 0
KCA1 130151Z 08009KT 23/11 A2989 RMK A01 T02300112  RH  047%=      5-min Rain = 0
KCA1 130152Z 08009KT 23/11 A2989 RMK A01 T02290112  RH  047%=      5-min Rain = 0
KCA1 130153Z 08009KT 23/11 A2989 RMK A01 T02280112  RH  048%=      5-min Rain = 0
KCA1 130154Z 08009KT 23/11 A2989 RMK A01 T02270112  RH  048%=      5-min Rain = 0
KCA1 130155Z 08009KT 23/11 A2989 RMK A01 T02260112  RH  048%=      5-min Rain = 0
KCA1 130156Z 08009KT 23/11 A2989 RMK A01 T02250111  RH  049%=      5-min Rain = 0
KCA1 130157Z 08009KT 23/11 A2989 RMK A01 T02250112  RH  049%=      5-min Rain = 0
KCA1 130158Z 08009KT 22/11 A2989 RMK A01 T02240111  RH  049%=      5-min Rain = 0
KCA1 130159Z 08009KT 22/11 A2989 RMK A01 T02230111  RH  049%=      5-min Rain = 0
KCA1 130200Z 08009KT 22/11 A2989 RMK A01 T02220111  RH  049%=      5-min Rain = 0
KCA1 130201Z 08009KT 22/11 A2989 RMK A01 T02220110  RH  049%=      5-min Rain = 0
KCA1 130202Z 08009KT 22/11 A2989 RMK A01 T02220110  RH  049%=      5-min Rain = 0
KCA1 130203Z 08009KT 22/11 A2989 RMK A01 T02220110  RH  049%=      5-min Rain = 0
KCA1 130204Z 08009KT 22/11 A2989 RMK A01 T02220110  RH  049%=      5-min Rain = 0
KCA1 130205Z 08009KT 22/11 A2989 RMK A01 T02220110  RH  049%=      5-min Rain = 0
KCA1 130206Z 08008KT 22/11 A2989 RMK A01 T02220110  RH  049%=      5-min Rain = 0
KCA1 130207Z 08009KT 22/11 A2989 RMK A01 T02210110  RH  049%=      5-min Rain = 0
KCA1 130208Z 08009KT 22/11 A2989 RMK A01 T02210110  RH  049%=      5-min Rain = 0
KCA1 130209Z 08009KT 22/11 A2989 RMK A01 T02210110  RH  049%=      5-min Rain = 0
KCA1 130210Z 08009KT 22/11 A299 RMK A01 T02200109  RH  049%=      5-min Rain = 0
KCA1 130211Z 08009KT 22/11 A299 RMK A01 T02200109  RH  049%=      5-min Rain = 0
KCA1 130212Z 08009KT 22/11 A299 RMK A01 T02190109  RH  050%=      5-min Rain = 0
KCA1 130213Z 08009KT 22/11 A299 RMK A01 T02190109  RH  050%=      5-min Rain = 0
KCA1 130214Z 08009KT 22/11 A299 RMK A01 T02180109  RH  050%=      5-min Rain = 0
KCA1 130215Z 08009KT 22/11 A299 RMK A01 T02180108  RH  050%=      5-min Rain = 0
KCA1 130216Z 08009KT 22/11 A299 RMK A01 T02180108  RH  050%=      5-min Rain = 0
KCA1 130217Z 08009KT 22/11 A299 RMK A01 T02170107  RH  050%=      5-min Rain = 0
KCA1 130218Z 08009KT 22/11 A299 RMK A01 T02170107  RH  050%=      5-min Rain = 0
KCA1 130219Z 08009KT 22/11 A299 RMK A01 T02160107  RH  050%=      5-min Rain = 0
KCA1 130220Z 08009KT 22/11 A299 RMK A01 T02160106  RH  050%=      5-min Rain = 0
KCA1 130221Z 09009KT 22/11 A299 RMK A01 T02160106  RH  050%=      5-min Rain = 0
KCA1 130222Z 09009KT 22/11 A299 RMK A01 T02160106  RH  049%=      5-min Rain = 0
KCA1 130223Z 09009KT 22/11 A299 RMK A01 T02160106  RH  049%=      5-min Rain = 0
KCA1 130224Z 09008KT 22/11 A299 RMK A01 T02160106  RH  049%=      5-min Rain = 0
KCA1 130225Z 09008KT 22/11 A299 RMK A01 T02150106  RH  050%=      5-min Rain = 0
KCA1 130226Z 09008KT 22/11 A299 RMK A01 T02150105  RH  050%=      5-min Rain = 0
KCA1 130227Z 09008KT 21/11 A299 RMK A01 T02140105  RH  050%=      5-min Rain = 0
KCA1 130228Z 09008KT 21/11 A299 RMK A01 T02140105  RH  050%=      5-min Rain = 0
KCA1 130229Z 09008KT 21/11 A299 RMK A01 T02130105  RH  050%=      5-min Rain = 0
KCA1 130230Z 09008KT 21/11 A299 RMK A01 T02130105  RH  050%=      5-min Rain = 0
KCA1 130231Z 09008KT 21/11 A299 RMK A01 T02120105  RH  050%=      5-min Rain = 0
KCA1 130232Z 09008KT 21/11 A299 RMK A01 T02110105  RH  051%=      5-min Rain = 0
KCA1 130233Z 09008KT 21/11 A299 RMK A01 T02110105  RH  051%=      5-min Rain = 0
KCA1 130234Z 09009KT 21/11 A299 RMK A01 T02100105  RH  051%=      5-min Rain = 0
KCA1 130235Z 09008KT 21/11 A299 RMK A01 T02100105  RH  051%=      5-min Rain = 0
KCA1 130236Z 08008KT 21/11 A299 RMK A01 T02090105  RH  051%=      5-min Rain = 0
KCA1 130237Z 08008KT 21/11 A299 RMK A01 T02090106  RH  051%=      5-min Rain = 0
KCA1 130238Z 08008KT 21/11 A299 RMK A01 T02090105  RH  051%=      5-min Rain = 0
KCA1 130239Z 08008KT 21/11 A299 RMK A01 T02080105  RH  052%=      5-min Rain = 0
KCA1 130240Z 08008KT 21/11 A299 RMK A01 T02080105  RH  052%=      5-min Rain = 0
KCA1 130241Z 08008KT 21/11 A299 RMK A01 T02080105  RH  052%=      5-min Rain = 0
KCA1 130242Z 09008KT 21/11 A299 RMK A01 T02080105  RH  052%=      5-min Rain = 0
KCA1 130243Z 09009KT 21/11 A299 RMK A01 T02080105  RH  052%=      5-min Rain = 0
KCA1 130244Z 09009KT 21/11 A299 RMK A01 T02080105  RH  052%=      5-min Rain = 0
KCA1 130245Z 09009KT 21/10 A299 RMK A01 T02070104  RH  052%=      5-min Rain = 0
KCA1 130246Z 09009KT 21/10 A299 RMK A01 T02070104  RH  052%=      5-min Rain = 0
KCA1 130247Z 09009KT 21/10 A299 RMK A01 T02070104  RH  052%=      5-min Rain = 0
KCA1 130248Z 09009KT 21/10 A299 RMK A01 T02070104  RH  052%=      5-min Rain = 0
KCA1 130249Z 09009KT 21/10 A299 RMK A01 T02070104  RH  051%=      5-min Rain = 0
KCA1 130250Z 09009KT 21/10 A299 RMK A01 T02070103  RH  051%=      5-min Rain = 0
KCA1 130251Z 09009KT 21/10 A299 RMK A01 T02060102  RH  051%=      5-min Rain = 0
KCA1 130252Z 09009KT 21/10 A299 RMK A01 T02060101  RH  051%=      5-min Rain = 0
KCA1 130253Z 09009KT 21/10 A299 RMK A01 T02060101  RH  051%=      5-min Rain = 0
KCA1 130254Z 09009KT 21/10 A299 RMK A01 T02060101  RH  051%=      5-min Rain = 0
KCA1 130255Z 09009KT 21/10 A299 RMK A01 T02060100  RH  051%=      5-min Rain = 0
KCA1 130256Z 09009KT 21/10 A299 RMK A01 T02060100  RH  051%=      5-min Rain = 0
KCA1 130257Z 09009KT 21/10 A299 RMK A01 T02050100  RH  051%=      5-min Rain = 0
KCA1 130258Z 09009KT 21/10 A299 RMK A01 T02050100  RH  051%=      5-min Rain = 0
KCA1 130259Z 09009KT 20/10 A299 RMK A01 T02040100  RH  051%=      5-min Rain = 0
KCA1 130300Z 09009KT 20/10 A299 RMK A01 T02030100  RH  051%=      5-min Rain = 0
KCA1 130301Z 09009KT 20/10 A299 RMK A01 T02030100  RH  051%=      5-min Rain = 0
KCA1 130302Z 09009KT 20/10 A299 RMK A01 T02020099  RH  051%=      5-min Rain = 0
KCA1 130303Z 09009KT 20/10 A299 RMK A01 T02020099  RH  052%=      5-min Rain = 0
KCA1 130304Z 09009KT 20/10 A299 RMK A01 T02020099  RH  052%=      5-min Rain = 0
KCA1 130305Z 09009KT 20/10 A299 RMK A01 T02020099  RH  051%=      5-min Rain = 0
KCA1 130306Z 10009KT 20/10 A299 RMK A01 T02020098  RH  051%=      5-min Rain = 0
KCA1 130307Z 10009KT 20/10 A299 RMK A01 T02020098  RH  051%=      5-min Rain = 0
KCA1 130308Z 10009KT 20/10 A299 RMK A01 T02020098  RH  051%=      5-min Rain = 0
KCA1 130309Z 09009KT 20/10 A299 RMK A01 T02010098  RH  051%=      5-min Rain = 0
KCA1 130310Z 09008KT 20/10 A299 RMK A01 T02010098  RH  051%=      5-min Rain = 0
KCA1 130311Z 09008KT 20/10 A299 RMK A01 T02000097  RH  051%=      5-min Rain = 0
KCA1 130312Z 09008KT 20/10 A299 RMK A01 T02000097  RH  051%=      5-min Rain = 0
KCA1 130313Z 09008KT 20/10 A299 RMK A01 T02000097  RH  051%=      5-min Rain = 0
KCA1 130314Z 09008KT 20/10 A299 RMK A01 T01990096  RH  051%=      5-min Rain = 0
KCA1 130315Z 09008KT 20/10 A299 RMK A01 T01990096  RH  051%=      5-min Rain = 0
KCA1 130316Z 09008KT 20/10 A299 RMK A01 T01990096  RH  051%=      5-min Rain = 0
KCA1 130317Z 09008KT 20/10 A299 RMK A01 T02000096  RH  051%=      5-min Rain = 0
KCA1 130318Z 09008KT 20/10 A299 RMK A01 T01990096  RH  051%=      5-min Rain = 0
KCA1 130319Z 10007KT 20/10 A299 RMK A01 T01990095  RH  051%=      5-min Rain = 0
KCA1 130320Z 10007KT 20/10 A299 RMK A01 T01990095  RH  051%=      5-min Rain = 0
KCA1 130321Z 10007KT 20/10 A299 RMK A01 T01990095  RH  051%=      5-min Rain = 0
KCA1 130322Z 10007KT 20/10 A299 RMK A01 T01980095  RH  051%=      5-min Rain = 0
KCA1 130323Z 10006KT 20/10 A2991 RMK A01 T01980095  RH  051%=      5-min Rain = 0
KCA1 130324Z 10006KT 20/10 A2991 RMK A01 T01980095  RH  051%=      5-min Rain = 0
KCA1 130325Z 10006KT 20/10 A2991 RMK A01 T01970095  RH  052%=      5-min Rain = 0
KCA1 130326Z 10005KT 20/10 A2991 RMK A01 T01970095  RH  052%=      5-min Rain = 0
KCA1 130327Z 11005KT 20/10 A2991 RMK A01 T01960095  RH  052%=      5-min Rain = 0
KCA1 130328Z 11004KT 20/09 A2991 RMK A01 T01960094  RH  052%=      5-min Rain = 0
KCA1 130329Z 12004KT 20/09 A2991 RMK A01 T01950094  RH  052%=      5-min Rain = 0
KCA1 130330Z 11004KT 20/09 A2991 RMK A01 T01960094  RH  052%=      5-min Rain = 0
KCA1 130331Z 11004KT 20/09 A2991 RMK A01 T01950094  RH  052%=      5-min Rain = 0
KCA1 130332Z 11004KT 20/09 A2991 RMK A01 T01950094  RH  052%=      5-min Rain = 0
KCA1 130333Z 11005KT 20/09 A2991 RMK A01 T01950094  RH  052%=      5-min Rain = 0
KCA1 130334Z 11005KT 19/09 A2991 RMK A01 T01940094  RH  052%=      5-min Rain = 0
KCA1 130335Z 10005KT 19/09 A2991 RMK A01 T01930094  RH  053%=      5-min Rain = 0
KCA1 130336Z 10006KT 19/09 A2991 RMK A01 T01920094  RH  053%=      5-min Rain = 0
KCA1 130337Z 10006KT 19/09 A2991 RMK A01 T01910094  RH  053%=      5-min Rain = 0
KCA1 130338Z 10006KT 19/09 A2991 RMK A01 T01900094  RH  053%=      5-min Rain = 0
KCA1 130339Z 10006KT 19/09 A2991 RMK A01 T01900094  RH  054%=      5-min Rain = 0
KCA1 130340Z 10006KT 19/09 A2991 RMK A01 T01890094  RH  054%=      5-min Rain = 0
KCA1 130341Z 10006KT 19/09 A2991 RMK A01 T01880094  RH  054%=      5-min Rain = 0
KCA1 130342Z 10007KT 19/09 A2991 RMK A01 T01880094  RH  054%=      5-min Rain = 0
KCA1 130343Z 10007KT 19/09 A2991 RMK A01 T01890093  RH  054%=      5-min Rain = 0
KCA1 130344Z 10007KT 19/09 A2991 RMK A01 T01880093  RH  054%=      5-min Rain = 0
KCA1 130345Z 10007KT 19/09 A2991 RMK A01 T01880093  RH  054%=      5-min Rain = 0
KCA1 130346Z 10007KT 19/09 A2991 RMK A01 T01890093  RH  054%=      5-min Rain = 0
KCA1 130347Z 10007KT 19/09 A2991 RMK A01 T01880093  RH  054%=      5-min Rain = 0
KCA1 130348Z 10007KT 19/09 A2991 RMK A01 T01880093  RH  054%=      5-min Rain = 0
KCA1 130349Z 10007KT 19/09 A2991 RMK A01 T01870093  RH  054%=      5-min Rain = 0
KCA1 130350Z 10008KT 19/09 A2991 RMK A01 T01870092  RH  054%=      5-min Rain = 0
KCA1 130351Z 10008KT 19/09 A2991 RMK A01 T01870093  RH  054%=      5-min Rain = 0
KCA1 130352Z 09008KT 19/09 A2991 RMK A01 T01860092  RH  054%=      5-min Rain = 0
KCA1 130353Z 10008KT 19/09 A2991 RMK A01 T01870092  RH  054%=      5-min Rain = 0
KCA1 130354Z 10008KT 19/09 A2991 RMK A01 T01870092  RH  054%=      5-min Rain = 0
KCA1 130355Z 09008KT 19/09 A2991 RMK A01 T01870092  RH  054%=      5-min Rain = 0
KCA1 130356Z 09008KT 19/09 A2991 RMK A01 T01870091  RH  054%=      5-min Rain = 0
KCA1 130357Z 10008KT 19/09 A2991 RMK A01 T01870092  RH  054%=      5-min Rain = 0
KCA1 130358Z 09008KT 19/09 A2991 RMK A01 T01880092  RH  054%=      5-min Rain = 0
KCA1 130359Z 09009KT 19/09 A2991 RMK A01 T01880091  RH  053%=      5-min Rain = 0
KCA1 130400Z 09009KT 19/09 A2991 RMK A01 T01880091  RH  053%=      5-min Rain = 0
KCA1 130401Z 09009KT 19/09 A2991 RMK A01 T01880092  RH  053%=      5-min Rain = 0
KCA1 130402Z 09009KT 19/09 A2991 RMK A01 T01880092  RH  053%=      5-min Rain = 0
KCA1 130403Z 09010KT 19/09 A2991 RMK A01 T01880091  RH  053%=      5-min Rain = 0
KCA1 130404Z 09010KT 19/09 A2991 RMK A01 T01870091  RH  053%=      5-min Rain = 0
KCA1 130405Z 08010KT 19/09 A299 RMK A01 T01870091  RH  054%=      5-min Rain = 0
KCA1 130406Z 08010KT 19/09 A299 RMK A01 T01870091  RH  053%=      5-min Rain = 0
KCA1 130407Z 09010KT 19/09 A299 RMK A01 T01880090  RH  053%=      5-min Rain = 0
KCA1 130408Z 09009KT 19/09 A2991 RMK A01 T01890090  RH  053%=      5-min Rain = 0
KCA1 130409Z 09009KT 19/09 A2991 RMK A01 T01900090  RH  052%=      5-min Rain = 0
KCA1 130410Z 09008KT 19/09 A2991 RMK A01 T01910090  RH  052%=      5-min Rain = 0
KCA1 130411Z 09008KT 19/09 A2991 RMK A01 T01920090  RH  052%=      5-min Rain = 0
KCA1 130412Z 09007KT 19/09 A2991 RMK A01 T01920090  RH  052%=      5-min Rain = 0
KCA1 130413Z 09007KT 19/09 A2991 RMK A01 T01920090  RH  052%=      5-min Rain = 0
KCA1 130414Z 09006KT 19/09 A2991 RMK A01 T01920090  RH  052%=      5-min Rain = 0
KCA1 130415Z 09006KT 19/09 A2991 RMK A01 T01920090  RH  052%=      5-min Rain = 0
KCA1 130416Z 09007KT 19/09 A2991 RMK A01 T01920090  RH  052%=      5-min Rain = 0
KCA1 130417Z 09007KT 19/09 A2991 RMK A01 T01920090  RH  052%=      5-min Rain = 0
KCA1 130418Z 09007KT 19/09 A2991 RMK A01 T01910090  RH  052%=      5-min Rain = 0
KCA1 130419Z 09007KT 19/09 A2991 RMK A01 T01910090  RH  052%=      5-min Rain = 0
KCA1 130420Z 09007KT 19/09 A2991 RMK A01 T01900090  RH  052%=      5-min Rain = 0
KCA1 130421Z 09007KT 19/09 A2991 RMK A01 T01900090  RH  052%=      5-min Rain = 0
KCA1 130422Z 09007KT 19/09 A2991 RMK A01 T01890090  RH  053%=      5-min Rain = 0
KCA1 130423Z 09007KT 19/09 A2991 RMK A01 T01880090  RH  053%=      5-min Rain = 0
KCA1 130424Z 09006KT 19/09 A2991 RMK A01 T01870090  RH  053%=      5-min Rain = 0
KCA1 130425Z 09006KT 19/09 A2991 RMK A01 T01860090  RH  053%=      5-min Rain = 0
KCA1 130426Z 10005KT 19/09 A2991 RMK A01 T01860090  RH  054%=      5-min Rain = 0
KCA1 130427Z 14002KT 19/09 A2991 RMK A01 T01850090  RH  054%=      5-min Rain = 0
KCA1 130428Z 21003KT 18/09 A2991 RMK A01 T01840090  RH  054%=      5-min Rain = 0
KCA1 130429Z 19003KT 18/09 A2991 RMK A01 T01820093  RH  056%=      5-min Rain = 0
KCA1 130430Z 13002KT 18/09 A2991 RMK A01 T01800094  RH  057%=      5-min Rain = 0
KCA1 130431Z 10003KT 18/09 A2991 RMK A01 T01800093  RH  057%=      5-min Rain = 0
KCA1 130432Z 10004KT 18/09 A2991 RMK A01 T01800092  RH  057%=      5-min Rain = 0
KCA1 130433Z 10004KT 18/09 A2991 RMK A01 T01800092  RH  056%=      5-min Rain = 0
KCA1 130434Z 10005KT 18/09 A2991 RMK A01 T01800092  RH  056%=      5-min Rain = 0
KCA1 130435Z 10005KT 18/09 A2991 RMK A01 T01800091  RH  056%=      5-min Rain = 0
KCA1 130436Z 10005KT 18/09 A2991 RMK A01 T01800091  RH  056%=      5-min Rain = 0
KCA1 130437Z 11005KT 18/09 A2991 RMK A01 T01800091  RH  056%=      5-min Rain = 0
KCA1 130438Z 11005KT 18/09 A2991 RMK A01 T01810091  RH  056%=      5-min Rain = 0
KCA1 130439Z 11005KT 18/09 A2991 RMK A01 T01810091  RH  056%=      5-min Rain = 0
KCA1 130440Z 11005KT 18/09 A2991 RMK A01 T01810091  RH  056%=      5-min Rain = 0
KCA1 130441Z 11005KT 18/09 A2991 RMK A01 T01800091  RH  056%=      5-min Rain = 0
KCA1 130442Z 10005KT 18/09 A2991 RMK A01 T01790091  RH  056%=      5-min Rain = 0
KCA1 130443Z 10006KT 18/09 A2991 RMK A01 T01780091  RH  057%=      5-min Rain = 0
KCA1 130444Z 10006KT 18/09 A2991 RMK A01 T01770091  RH  057%=      5-min Rain = 0
KCA1 130445Z 11006KT 18/09 A2991 RMK A01 T01770091  RH  057%=      5-min Rain = 0
KCA1 130446Z 11006KT 18/09 A2991 RMK A01 T01760091  RH  057%=      5-min Rain = 0
KCA1 130447Z 11005KT 18/09 A2991 RMK A01 T01750091  RH  058%=      5-min Rain = 0
KCA1 130448Z 11005KT 17/09 A2991 RMK A01 T01740091  RH  058%=      5-min Rain = 0
KCA1 130449Z 11005KT 17/09 A2991 RMK A01 T01740091  RH  058%=      5-min Rain = 0
KCA1 130450Z 11005KT 17/09 A2991 RMK A01 T01730091  RH  058%=      5-min Rain = 0
KCA1 130451Z 11005KT 17/09 A2991 RMK A01 T01730091  RH  058%=      5-min Rain = 0
KCA1 130452Z 11005KT 17/09 A2991 RMK A01 T01730091  RH  059%=      5-min Rain = 0
KCA1 130453Z 11005KT 17/09 A2991 RMK A01 T01730091  RH  059%=      5-min Rain = 0
KCA1 130454Z 11005KT 17/09 A2991 RMK A01 T01720091  RH  059%=      5-min Rain = 0
KCA1 130455Z 12005KT 17/09 A2991 RMK A01 T01720091  RH  059%=      5-min Rain = 0
KCA1 130456Z 14004KT 17/09 A2991 RMK A01 T01720091  RH  059%=      5-min Rain = 0
KCA1 130457Z 16004KT 17/09 A2991 RMK A01 T01720091  RH  059%=      5-min Rain = 0
KCA1 130458Z 18004KT 17/09 A2991 RMK A01 T01740092  RH  059%=      5-min Rain = 0
KCA1 130459Z 18003KT 18/09 A2991 RMK A01 T01750092  RH  058%=      5-min Rain = 0

Page generated in 0.0818 seconds.